Latitude: N 50° 09' 49" Longitude: W 05° 11' 53" Elevation: 168m ASL

There are 8 visitors online

Adverts

<- Previous Day | Today | Next Day ->

All Data for 09 December 2017

Time
A - D
Temp
A - D
Dew Point
A - D
Humidity
A - D
Pressure
A - D
Wind
A - D
Wind Dir Gust
A - D
Rain Rate
A - D
Rain Total
00:00 4.7 3.0 89 1023.8 6.9 W 14.5 0.8 0.0
00:02 4.7 3.0 89 1023.7 6.9 W 14.5 0.8 0.0
00:03 4.7 3.0 89 1023.8 6.9 W 14.5 0.8 0.0
00:05 4.7 3.0 89 1023.6 6.9 W 12.1 0.0 0.0
00:06 4.5 2.8 89 1023.7 5.4 SW 12.1 0.0 0.0
00:08 4.5 2.8 89 1023.5 5.4 SW 7.6 0.0 0.0
00:09 4.4 2.7 89 1023.6 3.8 W 7.6 0.0 0.0
00:10 4.4 2.7 89 1023.4 4.5 SW 6.9 0.0 0.0
00:12 4.3 2.7 89 1023.4 4.5 SW 6.9 0.0 0.0
00:13 4.3 2.8 90 1023.5 4.5 SW 6.9 0.0 0.0
00:14 4.3 2.8 90 1023.3 4.5 SW 6.9 0.0 0.0
00:15 4.3 2.8 90 1023.3 4.5 SW 6.9 0.0 0.0
00:16 4.2 2.7 90 1023.4 5.4 W 5.4 0.0 0.0
00:17 4.2 2.7 90 1023.5 3.8 W 5.4 0.0 0.0
00:18 4.2 2.7 90 1023.4 3.8 SW 5.4 0.0 0.0
00:19 4.2 2.7 90 1023.3 4.5 SW 5.4 0.0 0.0
00:20 4.2 2.7 90 1023.3 2.2 SW 5.4 0.0 0.0
00:21 4.1 2.6 90 1023.3 3.1 SW 5.4 0.0 0.0
00:22 4.1 2.6 90 1023.3 3.8 SW 5.4 0.0 0.0
00:24 4.1 2.6 90 1023.3 5.4 S 5.4 0.0 0.0
00:25 4.1 2.6 90 1023.3 4.5 SW 5.4 0.0 0.0
00:26 4.0 2.5 90 1023.3 4.5 SW 5.4 0.0 0.0
00:27 4.0 2.5 90 1023.4 3.8 SW 5.4 0.0 0.0
00:28 4.0 2.5 90 1023.3 4.5 SW 5.4 0.0 0.0
00:29 4.0 2.5 90 1023.3 4.5 SW 5.4 0.0 0.0
00:31 4.0 2.5 90 1023.4 4.5 W 5.4 0.0 0.0
00:32 4.0 2.5 90 1023.3 2.2 W 5.4 0.0 0.0
00:33 3.9 2.4 90 1023.3 5.4 NW 5.4 0.0 0.0
00:34 3.9 2.6 91 1023.3 8.3 W 8.3 0.0 0.0
00:35 3.9 2.6 91 1023.2 8.3 NW 8.3 0.0 0.0
00:36 3.9 2.6 91 1023.2 8.3 W 8.3 0.0 0.0
00:37 3.9 2.6 91 1023.2 5.4 W 8.3 0.0 0.0
00:38 4.0 2.7 91 1023.3 3.8 W 8.3 0.0 0.0
00:39 4.0 2.7 91 1023.2 5.4 NW 8.3 0.0 0.0
00:40 4.0 2.7 91 1023.2 6.9 SW 8.3 0.0 0.0
00:41 4.1 2.8 91 1023.2 6.0 W 8.3 0.0 0.0
00:43 4.1 2.8 91 1023.3 6.0 NW 8.3 0.0 0.0
00:44 4.2 2.9 91 1023.2 6.0 NW 8.3 0.0 0.0
00:45 4.2 2.9 91 1022.9 9.2 W 9.2 0.0 0.0
00:46 4.2 2.9 91 1023.2 8.3 NW 9.2 0.0 0.0
00:47 4.3 2.8 90 1023.1 7.6 NW 9.2 0.0 0.0
00:49 4.3 3.0 91 1023.0 5.4 W 9.2 0.0 0.0
00:50 4.4 2.9 90 1023.0 5.4 W 9.2 0.0 0.0
00:51 4.4 2.9 90 1023.0 7.6 NW 9.2 0.0 0.0
00:52 4.5 3.0 90 1023.0 8.3 NW 9.2 0.0 0.0
00:53 4.5 3.0 90 1023.0 5.4 W 9.2 0.0 0.0
00:54 4.5 3.0 90 1023.0 7.6 W 9.2 0.0 0.0
00:56 4.5 3.0 90 1022.9 5.4 W 9.2 0.0 0.0
00:57 4.5 3.0 90 1023.0 4.5 NW 9.2 0.0 0.0
00:58 4.6 3.1 90 1023.0 4.5 NW 8.3 0.0 0.0
00:59 4.6 3.1 90 1022.9 6.9 NW 8.3 0.0 0.0
01:00 4.6 3.1 90 1022.9 6.9 W 8.3 0.0 0.0
01:01 4.6 3.1 90 1022.7 6.9 W 8.3 0.0 0.0
01:02 4.6 3.1 90 1022.8 6.9 W 8.3 0.0 0.0
01:03 4.6 3.1 90 1022.8 6.9 W 7.6 0.0 0.0
01:05 4.6 3.1 90 1022.8 6.9 W 7.6 0.0 0.0
01:06 4.7 3.0 89 1022.9 6.9 W 6.9 0.0 0.0
01:07 4.7 3.0 89 1022.8 9.8 NW 9.8 0.0 0.0
01:08 4.8 3.1 89 1022.8 9.2 W 9.8 0.0 0.0
01:10 4.8 3.1 89 1022.8 14.5 NW 14.5 0.0 0.0
01:11 4.8 3.1 89 1023.0 13.6 NW 14.5 0.0 0.0
01:12 4.9 3.2 89 1023.0 15.2 WNW 15.2 0.0 0.0
01:13 4.9 3.2 89 1022.7 15.2 W 15.2 0.0 0.0
01:14 4.9 3.2 89 1022.7 14.5 W 15.2 0.0 0.0
01:16 4.9 3.1 88 1022.8 9.2 W 15.2 0.0 0.0
01:17 4.9 3.1 88 1022.9 7.6 NW 15.2 0.0 0.0
01:18 4.9 3.1 88 1022.8 10.7 W 15.2 0.0 0.0
01:19 4.9 3.1 88 1022.8 10.7 W 15.2 0.0 0.0
01:20 4.9 2.9 87 1022.8 11.4 W 15.2 0.0 0.0
01:21 4.9 2.9 87 1022.9 10.7 NW 15.2 0.0 0.0
01:22 4.9 2.9 87 1022.8 7.6 NW 15.2 0.0 0.0
01:23 4.9 2.9 87 1022.9 9.8 W 15.2 0.0 0.0
01:24 4.9 2.9 87 1022.8 9.2 W 14.5 0.0 0.0
01:25 4.8 2.8 87 1022.7 9.8 NW 11.4 0.0 0.0
01:26 4.8 2.8 87 1022.8 8.3 NW 11.4 0.0 0.0
01:27 4.8 2.8 87 1022.7 8.3 W 11.4 0.0 0.0
01:28 4.8 2.8 87 1022.7 6.0 W 11.4 0.0 0.0
01:29 4.8 2.7 86 1022.7 7.6 W 11.4 0.0 0.0
01:30 4.8 2.7 86 1022.7 6.0 NW 11.4 0.0 0.0
01:31 4.8 2.8 87 1022.7 7.6 NW 11.4 0.0 0.0
01:33 4.7 2.6 86 1022.8 7.6 NW 10.7 0.0 0.0
01:34 4.7 2.7 87 1022.8 6.0 NW 10.7 0.0 0.0
01:35 4.7 2.7 87 1022.8 3.8 NW 9.8 0.0 0.0
01:36 4.7 2.7 87 1022.9 6.9 NW 9.8 0.0 0.0
01:37 4.7 2.7 87 1022.8 3.1 NW 9.8 0.0 0.0
01:38 4.7 2.7 87 1022.9 5.4 NW 9.8 0.0 0.0
01:39 4.7 2.7 87 1022.8 6.0 NW 9.8 0.0 0.0
01:40 4.7 2.7 87 1022.8 8.3 NW 9.8 0.0 0.0
01:41 4.7 2.7 87 1022.8 5.4 NW 8.3 0.0 0.0
01:43 4.7 2.7 87 1022.9 5.4 W 8.3 0.0 0.0
01:44 4.7 2.7 87 1022.9 9.8 NW 9.8 0.0 0.0
01:45 4.7 2.7 87 1022.7 8.3 NW 9.8 0.0 0.0
01:46 4.7 2.7 87 1022.8 7.6 W 9.8 0.0 0.0
01:47 4.7 2.7 87 1022.8 7.6 SW 9.8 0.0 0.0
01:48 4.7 2.7 87 1022.8 7.6 W 9.8 0.0 0.0
01:49 4.7 2.7 87 1022.9 5.4 W 9.8 0.0 0.0
01:50 4.8 2.8 87 1022.9 6.0 W 9.8 0.0 0.0
01:51 4.8 2.8 87 1022.7 9.2 W 9.8 0.0 0.0
01:52 4.8 2.8 87 1022.7 9.2 N 9.8 0.0 0.0
01:53 4.8 2.8 87 1022.8 8.3 NW 9.8 0.0 0.0
01:54 4.8 2.8 87 1022.9 4.5 W 9.2 0.0 0.0
01:55 4.8 2.8 87 1022.9 5.4 W 9.2 0.0 0.0
01:56 4.8 2.8 87 1022.7 3.8 NW 9.2 0.0 0.0
01:57 4.8 2.8 87 1022.9 6.9 NW 9.2 0.0 0.0
01:58 4.8 2.8 87 1022.8 6.9 W 9.2 0.0 0.0
01:59 4.8 2.8 87 1022.8 6.0 NW 9.2 0.0 0.0
02:00 4.8 2.8 87 1022.9 8.3 SW 9.2 0.0 0.0
02:01 4.8 2.8 87 1022.8 8.3 SW 9.2 0.0 0.0
02:03 4.8 2.8 87 1022.9 8.3 SW 8.3 0.0 0.0
02:04 4.8 2.8 87 1022.9 8.3 SW 8.3 0.0 0.0
02:05 4.8 2.8 87 1022.8 8.3 SW 8.3 0.0 0.0
02:06 4.7 2.6 86 1022.8 8.3 NW 8.3 0.0 0.0
02:07 4.7 2.6 86 1022.9 9.8 W 11.4 0.0 0.0
02:08 4.7 2.4 85 1022.8 10.7 W 11.4 0.0 0.0
02:09 4.7 2.4 85 1022.8 7.6 NW 11.4 0.0 0.0
02:10 4.7 2.4 85 1022.8 8.3 SW 11.4 0.0 0.0
02:11 4.8 2.5 85 1022.7 7.6 W 11.4 0.0 0.0
02:13 4.8 2.5 85 1022.8 6.9 NW 11.4 0.0 0.0
02:14 4.7 2.4 85 1022.8 6.0 NW 11.4 0.0 0.0
02:15 4.7 2.4 85 1022.9 7.6 NW 11.4 0.0 0.0
02:16 4.7 2.4 85 1022.9 7.6 NW 11.4 0.0 0.0
02:17 4.7 2.4 85 1023.0 8.3 NW 11.4 0.0 0.0
02:18 4.7 2.4 85 1022.9 6.0 NW 10.7 0.0 0.0
02:19 4.7 2.4 85 1022.8 8.3 NW 8.3 0.0 0.0
02:20 4.6 2.3 85 1022.9 7.6 NW 8.3 0.0 0.0
02:21 4.6 2.3 85 1022.8 9.2 NW 9.2 0.0 0.0
02:22 4.6 2.1 84 1022.8 8.3 W 9.2 0.0 0.0
02:23 4.6 2.1 84 1022.9 6.9 NW 9.2 0.0 0.0
02:25 4.6 2.1 84 1022.7 6.9 NW 9.2 0.0 0.0
02:26 4.6 2.1 84 1022.8 9.2 NW 9.2 0.0 0.0
02:27 4.6 2.1 84 1022.9 8.3 W 9.2 0.0 0.0
02:28 4.6 2.1 84 1022.8 6.9 NW 9.2 0.0 0.0
02:29 4.6 2.1 84 1022.7 6.0 NW 9.8 0.0 0.0
02:30 4.6 2.1 84 1022.8 4.5 NW 9.8 0.0 0.0
02:35 4.5 1.9 83 1022.7 7.6 W 12.1 0.0 0.0
02:37 4.6 2.0 83 1022.8 7.6 NW 12.1 0.0 0.0
02:38 4.6 2.0 83 1022.8 7.6 W 12.1 0.0 0.0
02:39 4.6 2.0 83 1022.8 7.6 W 12.1 0.0 0.0
02:40 4.6 2.0 83 1022.7 9.2 W 12.1 0.0 0.0
02:41 4.6 2.0 83 1022.7 6.0 W 12.1 0.0 0.0
02:42 4.6 2.0 83 1022.7 8.3 NW 12.1 0.0 0.0
02:43 4.6 2.0 83 1022.7 7.6 W 12.1 0.0 0.0
02:44 4.6 2.0 83 1022.7 8.3 SW 12.1 0.0 0.0
02:45 4.6 2.0 83 1022.7 7.6 NW 12.1 0.0 0.0
02:46 4.6 2.0 83 1022.7 7.6 NW 11.4 0.0 0.0
02:52 4.6 2.0 83 1022.5 9.2 N 9.8 0.0 0.0
02:53 4.6 2.0 83 1022.6 10.7 W 10.7 0.0 0.0
02:54 4.6 2.0 83 1022.6 9.8 NW 10.7 0.0 0.0
02:55 4.6 2.0 83 1022.6 7.6 NW 10.7 0.0 0.0
02:56 4.6 2.0 83 1022.6 9.2 N 10.7 0.0 0.0
02:57 4.6 2.0 83 1022.6 7.6 W 10.7 0.0 0.0
02:58 4.6 2.0 83 1022.5 6.0 NW 10.7 0.0 0.0
02:59 4.6 2.0 83 1022.5 5.4 NW 10.7 0.0 0.0
03:00 4.6 2.0 83 1022.6 6.0 NW 10.7 0.0 0.0
03:01 4.6 2.0 83 1022.5 6.0 NW 10.7 0.0 0.0
03:02 4.6 2.0 83 1022.5 6.0 NW 10.7 0.0 0.0
03:03 4.6 2.0 83 1022.7 6.0 NW 9.8 0.0 0.0
03:04 4.6 2.0 83 1022.7 6.0 NW 9.2 0.0 0.0
03:05 4.6 2.0 83 1022.7 6.0 NW 9.2 0.0 0.0
03:07 4.6 2.0 83 1022.6 3.8 NW 7.6 0.0 0.0
03:08 4.5 1.9 83 1022.6 5.4 W 6.0 0.0 0.0
03:09 4.5 1.9 83 1022.5 5.4 N 6.0 0.0 0.0
03:10 4.5 1.9 83 1022.7 3.8 W 6.0 0.0 0.0
03:11 4.5 1.9 83 1022.6 3.1 N 6.0 0.0 0.0
03:12 4.5 1.9 83 1022.7 3.1 N 6.0 0.0 0.0
03:13 4.5 1.9 83 1022.5 4.5 NW 6.0 0.0 0.0
03:14 4.5 1.9 83 1022.5 4.5 NW 6.0 0.0 0.0
03:15 4.5 1.9 83 1022.5 3.8 N 5.4 0.0 0.0
03:16 4.5 1.9 83 1022.4 5.4 W 5.4 0.0 0.0
03:17 4.5 2.0 84 1022.4 6.9 W 6.9 0.0 0.0
03:18 4.5 2.0 84 1022.4 7.6 W 7.6 0.0 0.0
03:19 4.5 2.0 84 1022.4 5.4 NW 7.6 0.0 0.0
03:20 4.5 2.0 84 1022.5 3.8 N 7.6 0.0 0.0
03:22 4.5 2.0 84 1022.3 2.2 NW 7.6 0.0 0.0
03:23 4.5 2.0 84 1022.5 3.1 NW 7.6 0.0 0.0
03:24 4.5 2.0 84 1022.5 5.4 W 7.6 0.0 0.0
03:25 4.6 2.1 84 1022.6 5.4 W 7.6 0.0 0.0
03:26 4.6 2.1 84 1022.5 3.1 W 7.6 0.0 0.0
03:27 4.6 2.1 84 1022.5 6.9 NW 7.6 0.0 0.0
03:28 4.6 2.1 84 1022.5 3.1 NW 7.6 0.0 0.0
03:29 4.6 2.1 84 1022.5 3.1 NW 6.9 0.0 0.0
03:30 4.6 2.0 83 1022.5 4.5 NW 6.9 0.0 0.0
03:31 4.6 2.0 83 1022.4 4.5 N 6.9 0.0 0.0
03:32 4.6 2.0 83 1022.5 6.0 NW 6.9 0.0 0.0
03:33 4.6 2.0 83 1022.5 4.5 NW 6.9 0.0 0.0
03:34 4.6 2.0 83 1022.4 4.5 NW 6.9 0.0 0.0
03:35 4.6 2.0 83 1022.5 4.5 NW 6.9 0.0 0.0
03:36 4.6 2.0 83 1022.4 5.4 NW 6.9 0.0 0.0
03:37 4.6 2.0 83 1022.5 3.8 NW 6.0 0.0 0.0
03:38 4.6 2.0 83 1022.4 3.1 NW 6.0 0.0 0.0
03:39 4.6 2.0 83 1022.3 3.1 NW 6.0 0.0 0.0
03:41 4.6 2.0 83 1022.3 3.1 NW 6.0 0.0 0.0
03:42 4.6 2.0 83 1022.4 3.8 NW 6.0 0.0 0.0
03:43 4.6 2.0 83 1022.2 3.1 NW 5.4 0.0 0.0
03:44 4.6 2.0 83 1022.4 3.1 NW 5.4 0.0 0.0
03:45 4.6 2.0 83 1022.3 3.1 NW 5.4 0.0 0.0
03:46 4.5 1.9 83 1022.2 3.8 NW 5.4 0.0 0.0
03:47 4.6 2.0 83 1022.3 5.4 NW 5.4 0.0 0.0
03:48 4.5 1.9 83 1022.2 3.1 NW 5.4 0.0 0.0
03:49 4.5 1.9 83 1022.2 4.5 NW 5.4 0.0 0.0
03:50 4.5 1.9 83 1022.1 4.5 NW 5.4 0.0 0.0
03:51 4.5 1.9 83 1022.2 3.8 NW 5.4 0.0 0.0
03:52 4.5 1.9 83 1022.2 4.5 NW 5.4 0.0 0.0
03:53 4.5 1.9 83 1022.3 3.8 NW 5.4 0.0 0.0
03:54 4.4 1.8 83 1022.2 4.5 NW 6.0 0.0 0.0
03:55 4.4 1.8 83 1022.3 4.5 NW 6.0 0.0 0.0
03:56 4.4 1.8 83 1022.2 3.8 NW 6.0 0.0 0.0
03:58 4.4 1.8 83 1022.1 0.7 NW 6.0 0.0 0.0
03:59 4.4 1.8 83 1022.2 1.6 NW 6.0 0.0 0.0
04:00 4.4 1.8 83 1022.2 2.2 NW 6.0 0.0 0.0
04:01 4.4 1.8 83 1022.2 3.1 NW 6.0 0.0 0.0
04:02 4.4 1.8 83 1022.3 3.1 NW 6.0 0.0 0.0
04:03 4.4 1.8 83 1022.3 3.1 NW 6.0 0.0 0.0
04:05 4.4 1.8 83 1022.1 3.1 NW 4.5 0.0 0.0
04:07 4.4 1.8 83 1022.2 3.8 NW 6.0 0.0 0.0
04:08 4.4 1.8 83 1022.1 3.8 NW 6.0 0.0 0.0
04:09 4.4 1.8 83 1022.2 3.8 NW 6.0 0.0 0.0
04:10 4.4 1.8 83 1022.1 2.2 NW 6.0 0.0 0.0
04:11 4.4 1.8 83 1022.2 2.2 NW 6.0 0.0 0.0
04:12 4.4 1.8 83 1022.1 2.2 NW 6.0 0.0 0.0
04:13 4.4 1.8 83 1022.1 2.2 NW 6.0 0.0 0.0
04:14 4.4 1.8 83 1022.1 2.2 NW 6.0 0.0 0.0
04:15 4.4 1.8 83 1022.1 0.7 NW 6.0 0.0 0.0
04:16 4.4 1.8 83 1022.1 1.6 NW 5.4 0.0 0.0
04:17 4.4 1.8 83 1022.1 4.5 NW 5.4 0.0 0.0
04:19 4.4 1.8 83 1022.0 3.8 NW 4.5 0.0 0.0
04:20 4.4 1.8 83 1022.1 2.2 NW 4.5 0.0 0.0
04:21 4.3 1.7 83 1022.1 3.1 NW 4.5 0.0 0.0
04:22 4.4 1.8 83 1021.9 3.8 NW 4.5 0.0 0.0
04:23 4.3 1.7 83 1022.2 3.8 NW 4.5 0.0 0.0
04:24 4.3 1.8 84 1022.1 2.2 NW 4.5 0.0 0.0
04:25 4.3 1.7 83 1022.0 2.2 NW 4.5 0.0 0.0
04:26 4.3 1.8 84 1021.9 2.2 NW 4.5 0.0 0.0
04:27 4.3 1.8 84 1022.2 2.2 NW 4.5 0.0 0.0
04:28 4.3 1.8 84 1021.9 1.6 NW 3.8 0.0 0.0
04:29 4.3 1.8 84 1022.0 2.2 NW 3.8 0.0 0.0
04:30 4.3 1.8 84 1022.0 1.6 NW 3.8 0.0 0.0
04:31 4.2 1.7 84 1022.0 1.6 NW 3.8 0.0 0.0
04:32 4.2 1.7 84 1022.1 2.2 NW 3.8 0.0 0.0
04:33 4.3 1.8 84 1022.0 3.1 NW 3.8 0.0 0.0
04:34 4.2 1.7 84 1022.0 1.6 NW 3.8 0.0 0.0
04:35 4.2 1.7 84 1022.0 2.2 NW 3.1 0.0 0.0
04:36 4.2 1.7 84 1022.0 2.2 NW 3.1 0.0 0.0
04:38 4.2 1.7 84 1021.9 1.6 NW 3.1 0.0 0.0
04:39 4.2 1.7 84 1022.0 2.2 NW 3.1 0.0 0.0
04:40 4.2 1.7 84 1021.9 1.6 NW 3.1 0.0 0.0
04:41 4.2 1.9 85 1021.8 2.2 NW 3.1 0.0 0.0
04:42 4.2 1.9 85 1021.8 2.2 NW 3.1 0.0 0.0
04:43 4.2 1.9 85 1021.8 1.6 NW 3.1 0.0 0.0
04:44 4.2 1.9 85 1021.9 2.2 NW 3.1 0.0 0.0
04:45 4.2 1.9 85 1021.7 3.1 NW 3.1 0.0 0.0
04:46 4.2 1.9 85 1021.8 3.1 NW 3.8 0.0 0.0
04:47 4.2 1.9 85 1021.8 3.1 NW 3.8 0.0 0.0
04:48 4.2 1.9 85 1021.8 1.6 NW 3.8 0.0 0.0
04:49 4.2 1.9 85 1021.7 2.2 NW 3.8 0.0 0.0
04:50 4.2 1.9 85 1021.7 1.6 NW 3.8 0.0 0.0
04:51 4.3 2.0 85 1021.8 2.2 NW 3.8 0.0 0.0
04:52 4.3 2.0 85 1021.7 1.6 NW 3.8 0.0 0.0
04:53 4.3 2.0 85 1021.7 1.6 NW 3.8 0.0 0.0
04:54 4.3 2.0 85 1021.7 0.7 NW 3.8 0.0 0.0
04:55 4.3 2.0 85 1021.7 0.7 NW 3.8 0.0 0.0
04:56 4.3 2.0 85 1021.7 0.0 NW 3.1 0.0 0.0
04:58 4.3 2.0 85 1021.7 0.7 NW 2.2 0.0 0.0
04:59 4.3 2.0 85 1021.8 0.7 NW 2.2 0.0 0.0
05:00 4.3 2.2 86 1021.7 1.6 NW 2.2 0.0 0.0
05:01 4.3 2.2 86 1021.6 2.2 NW 2.2 0.0 0.0
05:02 4.3 2.2 86 1021.7 2.2 NW 2.2 0.0 0.0
05:03 4.3 2.2 86 1021.8 2.2 NW 2.2 0.0 0.0
05:04 4.3 2.2 86 1021.8 2.2 NW 2.2 0.0 0.0
05:05 4.3 2.2 86 1021.7 2.2 NW 2.2 0.0 0.0
05:07 4.3 2.2 86 1021.7 2.2 SW 3.8 0.0 0.0
05:08 4.3 2.2 86 1021.7 2.2 S 3.8 0.0 0.0
05:10 4.3 2.2 86 1021.7 3.1 SW 3.8 0.0 0.0
05:11 4.3 2.2 86 1022.0 3.8 SW 3.8 0.0 0.0
05:12 4.3 2.2 86 1021.7 3.8 SW 3.8 0.0 0.0
05:13 4.3 2.2 86 1021.9 5.4 SW 5.4 0.0 0.0
05:14 4.4 2.3 86 1021.9 6.0 W 6.0 0.0 0.0
05:15 4.4 2.4 87 1021.8 4.5 W 6.0 0.0 0.0
05:16 4.4 2.4 87 1022.0 3.1 W 6.0 0.0 0.0
05:17 4.4 2.4 87 1021.9 4.5 SW 6.0 0.0 0.0
05:18 4.4 2.4 87 1021.8 6.0 SW 6.0 0.0 0.0
05:19 4.4 2.4 87 1021.8 7.6 W 7.6 0.0 0.1
05:20 4.4 2.4 87 1021.9 10.7 W 10.7 0.8 0.1
05:21 4.4 2.4 87 1021.9 9.8 W 10.7 1.5 0.1
05:22 4.4 2.4 87 1021.8 10.7 NW 10.7 1.5 0.1
05:23 4.3 2.3 87 1021.9 5.4 NW 10.7 1.5 0.2
05:24 4.3 2.3 87 1021.9 4.5 NW 10.7 2.3 0.2
05:25 4.3 2.3 87 1021.9 3.1 NW 10.7 1.5 0.2
05:26 4.3 2.3 87 1021.8 3.1 NW 10.7 0.8 0.3
05:27 4.3 2.5 88 1021.9 2.2 NW 10.7 1.5 0.3
05:28 4.2 2.4 88 1021.9 2.2 NW 10.7 1.5 0.3
05:30 4.2 2.4 88 1021.9 2.2 NW 10.7 0.8 0.3
05:31 4.2 2.4 88 1021.7 1.6 NW 10.7 0.8 0.3
05:32 4.1 2.3 88 1021.7 2.2 NW 10.7 0.0 0.3
05:33 4.1 2.3 88 1021.6 2.2 NW 5.4 0.0 0.3
05:34 4.1 2.3 88 1021.6 1.6 NW 4.5 0.0 0.3
05:35 4.1 2.3 88 1021.7 0.7 NW 3.1 0.0 0.3
05:36 4.0 2.2 88 1021.6 0.7 NW 3.1 0.0 0.3
05:37 4.0 2.4 89 1021.6 0.7 NW 2.2 0.0 0.3
05:39 4.0 2.4 89 1021.7 0.0 NW 2.2 0.0 0.3
05:40 4.0 2.4 89 1021.5 0.0 NW 2.2 0.0 0.3
05:41 3.9 2.3 89 1021.5 0.0 NW 2.2 0.0 0.3
05:42 3.9 2.3 89 1021.5 0.0 NW 2.2 0.0 0.3
05:43 3.9 2.3 89 1021.4 0.7 NW 1.6 0.0 0.3
05:44 3.9 2.3 89 1021.3 0.7 NW 0.7 0.0 0.3
05:45 3.8 2.2 89 1021.4 0.7 NW 0.7 0.0 0.3
05:46 3.8 2.2 89 1021.4 0.7 NW 0.7 0.0 0.3
05:47 3.7 2.1 89 1021.4 0.0 NW 0.7 0.0 0.3
05:48 3.8 2.3 90 1021.4 0.0 NW 0.7 0.0 0.3
05:49 3.7 2.2 90 1021.4 1.6 NW 1.6 0.0 0.3
05:50 3.7 2.2 90 1021.4 0.7 NW 1.6 0.0 0.3
05:51 3.7 2.2 90 1021.4 0.7 NW 1.6 0.0 0.3
05:53 3.6 2.1 90 1021.3 0.7 NW 1.6 0.0 0.3
05:54 3.6 2.1 90 1021.3 0.7 NW 1.6 0.0 0.3
05:55 3.6 2.1 90 1021.3 0.7 NW 1.6 0.0 0.3
05:56 3.5 2.0 90 1021.4 0.0 NW 1.6 0.0 0.3
05:57 3.5 2.0 90 1021.3 0.0 NW 1.6 0.0 0.3
05:58 3.5 2.0 90 1021.2 0.0 NW 1.6 0.0 0.3
05:59 3.5 2.0 90 1021.4 0.0 NW 1.6 0.0 0.3
06:00 3.5 2.2 91 1021.3 0.0 NW 0.7 0.0 0.3
06:01 3.5 2.2 91 1021.3 0.0 NW 0.7 0.0 0.3
06:02 3.5 2.2 91 1021.5 0.0 NW 0.7 0.0 0.3
06:03 3.5 2.2 91 1021.5 0.0 NW 0.7 0.0 0.3
06:04 3.5 2.2 91 1021.6 0.0 NW 0.7 0.0 0.3
06:05 3.5 2.2 91 1021.6 0.0 NW 0.0 0.0 0.3
06:07 3.5 2.2 91 1021.6 0.0 NW 0.0 0.0 0.3
06:08 3.5 2.2 91 1021.4 0.0 NW 0.0 0.0 0.3
06:10 3.4 2.1 91 1021.5 2.2 W 6.9 0.8 0.3
06:11 3.4 2.2 92 1021.3 3.1 W 6.9 0.8 0.3
06:12 3.4 2.2 92 1021.3 3.8 W 6.9 0.8 0.3
06:13 3.4 2.2 92 1021.4 2.2 W 6.9 0.8 0.3
06:14 3.4 2.2 92 1021.3 2.2 W 6.9 0.8 0.3
06:15 3.4 2.2 92 1021.2 3.1 W 6.9 0.0 0.3
06:16 3.4 2.2 92 1021.2 3.1 SW 6.9 0.0 0.3
06:17 3.4 2.2 92 1021.2 2.2 SW 6.9 0.0 0.3
06:18 3.4 2.2 92 1021.3 1.6 SW 6.9 0.0 0.3
06:19 3.4 2.2 92 1021.4 2.2 W 3.8 0.0 0.3
06:21 3.4 2.2 92 1021.3 1.6 W 3.8 0.0 0.3
06:22 3.4 2.2 92 1021.3 2.2 W 3.8 0.0 0.3
06:23 3.4 2.2 92 1021.3 2.2 W 3.1 0.0 0.3
06:24 3.4 2.2 92 1021.3 2.2 W 3.1 0.0 0.3
06:25 3.4 2.2 92 1021.3 2.2 W 3.1 0.0 0.3
06:26 3.4 2.2 92 1021.4 3.1 W 3.1 0.0 0.3
06:27 3.4 2.2 92 1021.4 1.6 W 3.1 0.0 0.3
06:28 3.4 2.2 92 1021.2 1.6 W 3.1 0.0 0.3
06:29 3.2 2.0 92 1021.1 2.2 W 3.1 0.0 0.3
06:30 3.4 2.2 92 1021.1 2.2 W 3.1 0.0 0.3
06:31 3.4 2.2 92 1021.1 2.2 W 3.1 0.0 0.3
06:32 3.4 2.2 92 1021.1 1.6 W 3.1 0.0 0.3
06:33 3.4 2.2 92 1021.0 0.7 W 3.1 0.0 0.3
06:34 3.3 2.1 92 1021.0 1.6 W 3.1 0.0 0.3
06:35 3.3 2.3 93 1021.1 1.6 W 3.1 0.0 0.3
06:36 3.3 2.3 93 1021.0 0.7 W 2.2 0.0 0.3
06:37 3.3 2.3 93 1021.0 0.7 W 2.2 0.0 0.3
06:39 3.3 2.3 93 1020.9 1.6 W 2.2 0.0 0.3
06:40 3.3 2.3 93 1021.0 0.7 W 2.2 0.0 0.3
06:41 3.2 2.2 93 1021.0 1.6 W 2.2 0.0 0.3
06:42 3.2 2.2 93 1021.1 1.6 W 1.6 0.0 0.3
06:43 3.2 2.2 93 1020.9 0.7 W 1.6 0.0 0.3
06:44 3.2 2.2 93 1020.8 1.6 W 1.6 0.0 0.3
06:45 3.2 2.2 93 1021.1 1.6 W 1.6 0.0 0.3
06:46 3.1 2.1 93 1021.1 0.7 W 1.6 0.0 0.3
06:47 3.1 2.1 93 1021.0 0.7 W 1.6 0.0 0.3
06:48 3.1 2.1 93 1021.2 1.6 W 1.6 0.0 0.3
06:49 3.1 2.1 93 1021.0 1.6 W 1.6 0.0 0.3
06:50 3.1 2.1 93 1021.0 1.6 W 1.6 0.0 0.3
06:51 3.1 2.1 93 1021.1 1.6 W 1.6 0.0 0.3
06:53 3.0 2.0 93 1020.9 2.2 W 2.2 0.0 0.3
06:54 3.0 2.0 93 1020.9 2.2 W 2.2 0.0 0.3
06:55 3.0 2.0 93 1021.0 1.6 W 2.2 0.0 0.3
06:56 3.0 2.0 93 1020.7 1.6 W 2.2 0.0 0.3
06:57 3.0 2.0 93 1020.9 1.6 W 2.2 0.0 0.3
06:58 3.0 2.0 93 1020.9 2.2 W 2.2 0.0 0.3
06:59 3.0 2.0 93 1020.9 2.2 W 2.2 0.0 0.3
07:00 3.0 2.0 93 1020.7 2.2 NW 2.2 0.0 0.3
07:01 3.0 2.0 93 1020.8 2.2 NW 2.2 0.0 0.3
07:02 3.0 2.0 93 1020.8 2.2 NW 2.2 0.0 0.3
07:03 3.0 2.0 93 1020.8 2.2 NW 2.2 0.0 0.3
07:04 3.0 2.0 93 1020.7 2.2 NW 2.2 0.0 0.3
07:05 3.0 2.0 93 1020.6 1.6 NW 2.2 0.0 0.3
07:07 3.0 2.0 93 1020.8 1.6 NW 2.2 0.8 0.4
07:09 3.0 2.0 93 1020.7 1.6 NW 2.2 0.8 0.4
07:11 2.9 1.9 93 1020.8 1.6 NW 2.2 0.8 0.4
07:12 2.9 1.9 93 1020.7 1.6 NW 2.2 0.0 0.4
07:13 2.9 1.9 93 1020.8 0.0 NW 2.2 0.0 0.4
07:14 2.9 1.9 93 1020.9 0.0 NW 2.2 0.0 0.4
07:15 2.9 1.9 93 1020.8 0.0 NW 1.6 0.0 0.4
07:16 2.9 1.9 93 1020.8 0.0 NW 1.6 0.0 0.4
07:18 2.9 1.9 93 1020.6 0.0 NW 1.6 0.0 0.4
07:19 2.9 1.9 93 1020.6 0.7 NW 1.6 0.0 0.4
07:20 2.9 1.9 93 1020.6 0.7 NW 1.6 0.0 0.4
07:21 2.9 1.9 93 1020.6 0.0 NW 1.6 0.0 0.4
07:22 2.9 1.9 93 1020.6 0.0 NW 1.6 0.0 0.4
07:23 2.8 1.8 93 1020.6 0.7 NW 0.7 0.0 0.4
07:24 2.8 1.8 93 1020.6 1.6 NW 1.6 0.0 0.4
07:25 2.8 1.8 93 1020.6 0.7 NW 1.6 0.0 0.4
07:26 2.8 1.8 93 1020.6 0.7 NW 1.6 0.0 0.4
07:27 2.8 1.8 93 1020.7 0.7 NW 1.6 0.0 0.4
07:28 2.7 1.7 93 1020.7 0.0 NW 1.6 0.0 0.4
07:29 2.7 1.7 93 1020.6 0.7 NW 1.6 0.0 0.4
07:30 2.8 1.8 93 1020.5 0.7 NW 1.6 0.0 0.4
07:31 2.7 1.7 93 1020.6 1.6 NW 1.6 0.0 0.4
07:32 2.7 1.7 93 1020.7 0.7 NW 1.6 0.0 0.4
07:33 2.7 1.7 93 1020.6 1.6 NW 1.6 0.0 0.4
07:34 2.7 1.7 93 1020.7 0.7 NW 1.6 0.0 0.4
07:35 2.7 1.7 93 1020.7 0.7 NW 1.6 0.0 0.4
07:36 2.7 1.7 93 1020.7 0.7 NW 1.6 0.0 0.4
07:37 2.7 1.7 93 1020.7 0.7 NW 1.6 0.0 0.4
07:38 2.7 1.7 93 1020.6 0.7 NW 1.6 0.0 0.4
07:39 2.7 1.7 93 1020.6 0.0 NW 1.6 0.0 0.4
07:40 2.6 1.6 93 1020.7 0.7 NW 1.6 0.0 0.4
07:41 2.6 1.6 93 1020.5 0.7 NW 1.6 0.0 0.4
07:42 2.6 1.6 93 1020.6 0.7 NW 1.6 0.0 0.4
07:43 2.6 1.6 93 1020.5 0.7 NW 1.6 0.0 0.4
07:44 2.6 1.6 93 1020.5 1.6 NW 1.6 0.0 0.4
07:45 2.6 1.6 93 1020.5 0.7 NW 1.6 0.0 0.4
07:46 2.6 1.6 93 1020.6 0.7 NW 1.6 0.0 0.4
07:47 2.6 1.6 93 1020.5 0.7 NW 1.6 0.0 0.4
07:48 2.6 1.6 93 1020.4 0.7 NW 1.6 0.0 0.4
07:49 2.6 1.6 93 1020.5 0.7 NW 1.6 0.0 0.4
07:50 2.6 1.6 93 1020.3 1.6 NW 1.6 0.0 0.4
07:51 2.6 1.6 93 1020.5 0.7 NW 1.6 0.0 0.4
07:52 2.6 1.6 93 1020.3 0.7 NW 1.6 0.0 0.4
07:53 2.5 1.5 93 1020.3 0.7 NW 1.6 0.0 0.4
07:54 2.6 1.6 93 1020.6 0.7 NW 1.6 0.0 0.4
07:55 2.6 1.6 93 1020.3 0.7 NW 1.6 0.0 0.4
07:56 2.5 1.5 93 1020.4 0.7 NW 1.6 0.0 0.4
07:57 2.6 1.6 93 1020.6 0.7 NW 1.6 0.0 0.4
07:58 2.6 1.6 93 1020.6 1.6 NW 1.6 0.0 0.4
07:59 2.5 1.5 93 1020.5 1.6 NW 1.6 0.0 0.4
08:00 2.5 1.5 93 1020.6 0.7 NW 1.6 0.0 0.4
08:01 2.5 1.5 93 1020.5 0.7 NW 1.6 0.0 0.4
08:02 2.5 1.5 93 1020.4 0.7 NW 1.6 0.0 0.4
08:03 2.5 1.5 93 1020.5 0.7 NW 1.6 0.0 0.4
08:04 2.5 1.5 93 1020.4 0.7 NW 1.6 0.0 0.4
08:06 2.5 1.5 93 1020.4 0.7 NW 1.6 0.0 0.4
08:07 2.5 1.5 93 1020.3 0.7 NW 1.6 0.0 0.4
08:09 2.4 1.4 93 1020.4 0.0 NW 1.6 0.0 0.4
08:10 2.4 1.4 93 1020.4 0.7 NW 0.7 0.0 0.4
08:12 2.4 1.4 93 1020.2 1.6 NW 1.6 0.0 0.4
08:13 2.3 1.3 93 1020.2 1.6 NW 1.6 0.0 0.4
08:14 2.3 1.3 93 1020.2 1.6 NW 1.6 0.0 0.4
08:15 2.3 1.3 93 1020.1 0.7 NW 1.6 0.0 0.4
08:16 2.3 1.3 93 1020.2 0.7 NW 1.6 0.0 0.4
08:17 2.3 1.3 93 1020.2 0.7 NW 1.6 0.0 0.4
08:18 2.3 1.3 93 1020.1 1.6 NW 1.6 0.0 0.4
08:19 2.3 1.3 93 1020.2 1.6 NW 1.6 0.0 0.4
08:20 2.3 1.3 93 1020.1 0.7 NW 1.6 0.0 0.4
08:21 2.3 1.3 93 1020.2 0.7 NW 1.6 0.0 0.4
08:22 2.3 1.3 93 1020.2 1.6 NW 1.6 0.0 0.4
08:23 2.3 1.3 93 1020.1 0.7 NW 1.6 0.0 0.4
08:24 2.3 1.4 94 1020.0 0.7 NW 1.6 0.0 0.4
08:25 2.3 1.4 94 1020.0 0.0 NW 1.6 0.0 0.4
08:26 2.3 1.4 94 1020.1 0.0 NW 1.6 0.0 0.4
08:27 2.3 1.4 94 1020.0 0.0 NW 1.6 0.0 0.4
08:28 2.3 1.4 94 1020.0 0.0 NW 1.6 0.0 0.4
08:29 2.3 1.4 94 1020.1 0.0 NW 1.6 0.0 0.4
08:30 2.3 1.4 94 1020.2 0.0 NW 1.6 0.0 0.4
08:31 2.3 1.4 94 1020.0 0.0 NW 1.6 0.0 0.4
08:32 2.3 1.4 94 1020.0 0.7 NW 0.7 0.0 0.4
08:33 2.2 1.2 93 1020.0 1.6 NW 1.6 0.0 0.4
08:34 2.2 1.3 94 1020.0 1.6 NW 1.6 0.0 0.4
08:35 2.2 1.3 94 1020.0 0.7 NW 1.6 0.0 0.4
08:36 2.2 1.3 94 1019.9 1.6 NW 1.6 0.0 0.4
08:37 2.2 1.3 94 1019.9 0.7 NW 1.6 0.0 0.4
08:38 2.2 1.3 94 1020.0 0.7 NW 1.6 0.0 0.4
08:39 2.2 1.3 94 1020.0 0.0 NW 1.6 0.0 0.4
08:40 2.1 1.2 94 1020.1 0.0 NW 1.6 0.0 0.4
08:41 2.1 1.2 94 1020.0 0.7 NW 1.6 0.0 0.4
08:42 2.1 1.2 94 1020.1 0.0 NW 1.6 0.0 0.4
08:43 2.1 1.2 94 1020.0 0.7 NW 1.6 0.0 0.4
08:44 2.0 1.1 94 1019.9 0.7 NW 1.6 0.0 0.4
08:45 2.0 1.1 94 1019.8 0.0 NW 1.6 0.0 0.4
08:46 2.0 1.1 94 1019.9 0.7 NW 0.7 0.0 0.4
08:47 2.0 1.1 94 1020.0 1.6 NW 1.6 0.0 0.4
08:48 2.0 1.1 94 1019.8 1.6 NW 1.6 0.0 0.4
08:49 2.0 1.1 94 1019.9 0.7 NW 1.6 0.0 0.4
08:50 2.0 1.1 94 1019.9 0.7 NW 1.6 0.0 0.4
08:51 2.1 1.2 94 1019.9 0.7 NW 1.6 0.0 0.4
08:52 2.1 1.2 94 1019.9 0.7 NW 1.6 0.0 0.4
08:53 2.1 1.4 95 1019.9 0.7 NW 1.6 0.0 0.4
08:54 2.1 1.4 95 1019.8 0.0 NW 1.6 0.0 0.4
08:55 2.1 1.4 95 1019.8 0.0 NW 1.6 0.0 0.4
08:56 2.1 1.4 95 1019.9 0.7 NW 1.6 0.0 0.4
08:57 2.1 1.4 95 1019.6 1.6 NW 1.6 0.0 0.4
08:58 2.1 1.4 95 1019.7 1.6 NW 1.6 0.0 0.4
08:59 2.1 1.4 95 1019.7 0.7 NW 1.6 0.0 0.4
09:00 2.2 1.5 95 1019.7 0.7 NW 1.6 0.0 0.4
09:01 2.2 1.5 95 1019.7 0.7 NW 1.6 0.0 0.4
09:03 2.2 1.5 95 1019.7 0.7 NW 1.6 0.0 0.4
09:05 2.2 1.5 95 1019.6 0.7 NW 1.6 0.0 0.4
09:07 2.2 1.5 95 1019.5 0.7 NW 1.6 0.0 0.4
09:09 2.3 1.7 96 1019.4 1.6 NW 1.6 0.0 0.4
09:11 2.3 1.7 96 1019.5 1.6 NW 1.6 0.0 0.4
09:12 2.3 1.7 96 1019.4 0.7 NW 1.6 0.0 0.4
09:14 2.3 1.7 96 1019.4 0.7 NW 1.6 0.0 0.4
09:15 2.3 1.7 96 1019.4 0.7 NW 1.6 0.0 0.4
09:16 2.3 1.7 96 1019.3 0.7 NW 1.6 0.0 0.4
09:17 2.3 1.7 96 1019.3 0.7 NW 1.6 0.0 0.4
09:18 2.3 1.7 96 1019.4 0.7 NW 1.6 0.0 0.4
09:19 2.3 1.7 96 1019.5 0.0 NW 1.6 0.0 0.4
09:20 2.4 1.8 96 1019.5 0.0 NW 1.6 0.0 0.4
09:21 2.4 1.8 96 1019.5 0.0 NW 0.7 0.0 0.4
09:23 2.4 1.8 96 1019.4 0.0 NW 0.7 0.0 0.4
09:25 2.4 1.8 96 1019.3 0.0 NW 0.7 0.0 0.4
09:28 2.5 1.9 96 1019.4 0.0 NW 0.7 0.0 0.4
09:30 2.5 1.9 96 1019.3 0.0 NW 0.0 0.0 0.4
09:31 2.5 1.9 96 1019.3 0.0 NW 0.7 0.0 0.4
09:34 2.5 2.1 97 1019.2 0.7 NW 0.7 0.0 0.4
09:36 2.6 2.2 97 1019.3 0.0 NW 0.7 0.0 0.4
09:37 2.7 2.3 97 1019.2 0.0 NW 0.7 0.0 0.4
09:38 2.7 2.3 97 1019.4 0.0 NW 0.7 0.0 0.4
09:39 2.7 2.3 97 1019.2 0.0 NW 0.7 0.0 0.4
09:40 2.6 2.2 97 1019.3 0.0 NW 0.7 0.0 0.4
09:41 2.7 2.3 97 1019.2 0.0 NW 0.7 0.0 0.4
09:42 2.8 2.4 97 1019.2 0.0 NW 0.7 0.0 0.4
09:43 2.8 2.4 97 1019.2 0.0 NW 0.7 0.0 0.4
09:44 2.7 2.3 97 1019.3 0.0 NW 0.0 0.0 0.4
09:45 2.8 2.4 97 1019.3 0.0 NW 0.0 0.0 0.4
09:46 2.9 2.5 97 1019.3 0.0 NW 0.0 0.0 0.4
09:47 2.9 2.5 97 1019.2 0.7 NW 0.7 0.0 0.4
09:48 2.9 2.5 97 1019.1 0.7 NW 0.7 0.0 0.4
09:49 2.9 2.5 97 1019.1 0.7 NW 0.7 0.0 0.4
09:50 2.9 2.5 97 1019.2 0.7 NW 0.7 0.0 0.4
09:51 3.0 2.7 98 1019.1 0.7 NW 0.7 0.0 0.4
09:52 3.0 2.7 98 1019.1 0.0 NW 0.7 0.0 0.4
09:53 3.0 2.7 98 1019.1 0.0 NW 0.7 0.0 0.4
09:54 3.0 2.7 98 1019.1 0.7 NW 0.7 0.0 0.4
09:55 3.0 2.7 98 1019.1 0.7 NW 0.7 0.0 0.4
09:56 3.0 2.7 98 1019.0 0.0 NW 0.7 0.0 0.4
09:57 3.1 2.8 98 1019.2 0.0 NW 0.7 0.0 0.4
09:58 3.1 2.8 98 1019.1 0.0 NW 0.7 0.0 0.4
09:59 3.2 2.9 98 1019.1 0.0 NW 0.7 0.0 0.4
10:00 3.2 2.9 98 1019.2 0.0 NW 0.7 0.0 0.4
10:02 3.2 2.9 98 1019.0 0.0 NW 0.7 0.0 0.4
10:03 3.2 2.9 98 1018.9 0.0 NW 0.7 0.0 0.4
10:04 3.2 2.9 98 1019.2 0.0 NW 0.7 0.0 0.4
10:05 3.2 2.9 98 1019.0 0.0 NW 0.7 0.0 0.4
10:06 3.2 2.9 98 1019.2 0.0 NW 0.0 0.0 0.4
10:07 3.2 2.9 98 1019.2 0.0 NW 0.0 0.0 0.4
10:09 3.4 3.1 98 1019.0 0.0 NW 0.7 0.0 0.4
10:10 3.5 3.2 98 1019.2 0.0 NW 0.7 0.0 0.4
10:12 3.5 3.2 98 1019.1 0.0 NW 0.7 0.0 0.4
10:13 3.5 3.2 98 1019.2 0.0 NW 0.7 0.0 0.4
10:14 3.6 3.3 98 1019.2 0.0 NW 0.7 0.0 0.4
10:15 3.6 3.3 98 1019.2 0.0 NW 0.7 0.0 0.4
10:17 3.6 3.3 98 1019.0 0.0 NW 0.7 0.0 0.4
10:18 3.6 3.5 99 1019.1 0.0 NW 0.7 0.0 0.4
10:19 3.7 3.4 98 1019.0 0.0 NW 0.0 0.0 0.4
10:20 3.7 3.6 99 1019.0 0.0 NW 0.0 0.0 0.4
10:21 3.7 3.6 99 1019.0 0.0 NW 0.0 0.0 0.4
10:22 3.7 3.6 99 1019.0 0.0 NW 0.0 0.0 0.4
10:23 3.7 3.6 99 1019.0 0.0 NW 0.0 0.0 0.4
10:25 3.8 3.7 99 1019.1 0.0 NW 0.0 0.0 0.4
10:26 3.8 3.7 99 1019.0 0.0 NW 0.0 0.0 0.4
10:27 3.8 3.7 99 1019.0 0.0 NW 0.0 0.0 0.4
10:28 3.9 3.8 99 1019.1 0.0 NW 0.0 0.0 0.4
10:29 3.9 3.8 99 1019.0 0.7 NW 0.7 0.0 0.4
10:30 3.9 3.8 99 1018.7 0.0 NW 0.7 0.0 0.4
10:31 3.9 3.8 99 1018.8 0.7 NW 0.7 0.0 0.4
10:32 3.9 3.8 99 1018.7 0.7 NW 0.7 0.0 0.4
10:33 3.9 3.8 99 1018.6 0.7 NW 0.7 0.0 0.4
10:34 4.0 3.9 99 1018.6 0.7 NW 0.7 0.0 0.4
10:36 4.0 3.9 99 1018.8 0.7 NW 0.7 0.0 0.4
10:37 4.0 3.9 99 1018.7 0.7 NW 0.7 0.0 0.4
10:38 4.1 4.0 99 1018.7 0.7 NW 1.6 0.0 0.4
10:39 4.1 4.0 99 1018.7 1.6 NW 1.6 0.0 0.4
10:40 4.1 4.0 99 1018.8 1.6 NW 1.6 0.0 0.4
10:41 4.1 4.0 99 1018.6 0.7 NW 1.6 0.0 0.4
10:42 4.2 4.1 99 1018.7 0.7 NW 1.6 0.0 0.4
10:43 4.2 4.1 99 1018.7 0.7 NW 1.6 0.0 0.4
10:44 4.2 4.1 99 1018.6 0.7 NW 1.6 0.0 0.4
10:45 4.2 4.1 99 1018.7 0.7 NW 1.6 0.0 0.4
10:46 4.2 4.1 99 1018.6 0.0 NW 1.6 0.0 0.4
10:47 4.3 4.2 99 1018.6 0.0 NW 1.6 0.0 0.4
10:48 4.3 4.2 99 1018.6 0.0 NW 1.6 0.0 0.4
10:49 4.3 4.2 99 1018.6 0.0 NW 1.6 0.0 0.4
10:50 4.3 4.2 99 1018.4 0.0 NW 1.6 0.0 0.4
10:51 4.3 4.2 99 1018.7 0.7 NW 0.7 0.0 0.4
10:52 4.4 4.3 99 1018.6 0.7 NW 0.7 0.0 0.4
10:53 4.4 4.3 99 1018.5 0.7 NW 0.7 0.0 0.4
10:54 4.4 4.3 99 1018.4 0.0 NW 0.7 0.0 0.4
10:55 4.4 4.3 99 1018.3 0.0 NW 0.7 0.0 0.4
10:56 4.5 4.4 99 1018.4 0.7 NW 0.7 0.0 0.4
10:57 4.5 4.4 99 1018.4 0.7 NW 0.7 0.0 0.4
10:58 4.5 4.4 99 1018.2 0.7 NW 0.7 0.0 0.4
10:59 4.5 4.4 99 1018.4 0.7 NW 0.7 0.0 0.4
11:00 4.5 4.4 99 1018.2 1.6 NW 1.6 0.0 0.4
11:01 4.5 4.4 99 1018.2 1.6 NW 1.6 0.0 0.4
11:03 4.5 4.4 99 1018.2 1.6 NW 1.6 0.0 0.4
11:04 4.5 4.4 99 1018.2 1.6 NW 1.6 0.0 0.4
11:05 4.5 4.4 99 1018.0 1.6 NW 1.6 0.0 0.4
11:07 4.5 4.4 99 1018.2 1.6 NW 1.6 0.0 0.4
11:08 4.8 4.5 98 1018.1 1.6 NW 1.6 0.0 0.4
11:10 4.9 4.6 98 1018.0 1.6 NW 1.6 0.0 0.4
11:11 4.9 4.6 98 1018.2 0.7 NW 1.6 0.0 0.4
11:12 4.9 4.6 98 1018.1 0.7 NW 1.6 0.0 0.4
11:13 4.9 4.6 98 1018.0 0.0 NW 1.6 0.0 0.4
11:14 4.9 4.6 98 1017.9 0.7 NW 1.6 0.0 0.4
11:16 5.0 4.7 98 1017.8 0.7 NW 1.6 0.0 0.4
11:17 5.0 4.7 98 1017.7 1.6 NW 1.6 0.0 0.4
11:18 5.0 4.7 98 1017.7 1.6 NW 1.6 0.0 0.4
11:19 5.0 4.7 98 1017.6 2.2 NW 2.2 0.0 0.4
11:20 5.0 4.7 98 1017.7 1.6 SE 2.2 0.0 0.4
11:21 5.0 4.7 98 1017.7 1.6 SE 2.2 0.0 0.4
11:22 5.0 4.7 98 1017.7 2.2 SE 2.2 0.0 0.4
11:23 5.1 4.8 98 1017.7 2.2 SE 2.2 0.0 0.4
11:24 5.1 4.8 98 1017.6 1.6 SE 2.2 0.0 0.4
11:25 5.1 4.8 98 1017.5 1.6 SE 2.2 0.0 0.4
11:26 5.1 4.7 97 1017.5 1.6 SE 2.2 0.0 0.4
11:27 5.1 4.7 97 1017.5 1.6 SE 2.2 0.0 0.4
11:28 5.1 4.7 97 1017.5 2.2 SE 2.2 0.0 0.4
11:29 5.1 4.7 97 1017.5 2.2 SE 2.2 0.0 0.4
11:30 5.1 4.7 97 1017.3 2.2 SE 2.2 0.0 0.4
11:31 5.1 4.7 97 1017.5 2.2 SE 2.2 0.0 0.4
11:32 5.2 4.8 97 1017.4 2.2 SE 2.2 0.0 0.4
11:33 5.2 4.8 97 1017.5 1.6 SE 2.2 0.0 0.4
11:34 5.2 4.8 97 1017.3 2.2 SE 2.2 0.0 0.4
11:35 5.2 4.8 97 1017.3 1.6 SE 2.2 0.0 0.4
11:36 5.2 4.6 96 1017.2 1.6 SE 2.2 0.0 0.4
11:38 5.2 4.6 96 1017.3 2.2 SE 2.2 0.0 0.4
11:39 5.3 4.7 96 1017.3 1.6 SE 2.2 0.0 0.4
11:40 5.3 4.7 96 1017.3 1.6 SE 2.2 0.0 0.4
11:42 5.3 4.7 96 1017.2 3.1 SE 3.1 0.0 0.4
11:43 5.3 4.7 96 1017.2 2.2 SE 3.1 0.0 0.4
11:44 5.3 4.7 96 1017.3 2.2 SE 3.1 0.0 0.4
11:45 5.3 4.7 96 1017.2 2.2 SE 3.1 0.0 0.4
11:46 5.3 4.7 96 1017.3 2.2 SE 3.1 0.0 0.4
11:47 5.3 4.6 95 1017.2 3.1 SE 3.1 0.0 0.4
11:48 5.3 4.6 95 1017.2 3.1 SE 3.1 0.0 0.4
11:49 5.3 4.6 95 1017.2 3.1 SE 3.1 0.0 0.4
11:50 5.3 4.6 95 1017.2 3.1 SE 3.1 0.0 0.4
11:51 5.4 4.7 95 1017.1 2.2 SE 3.1 0.0 0.4
11:53 5.3 4.6 95 1017.0 3.1 SE 3.1 0.0 0.4
11:54 5.3 4.4 94 1017.2 3.8 SE 3.8 0.0 0.4
11:55 5.4 4.5 94 1017.0 3.8 SE 3.8 0.0 0.4
11:56 5.4 4.5 94 1017.0 3.1 SE 3.8 0.0 0.4
11:57 5.4 4.5 94 1017.1 3.1 SE 3.8 0.0 0.4
11:58 5.4 4.5 94 1017.0 4.5 SE 4.5 0.0 0.4
11:59 5.4 4.5 94 1017.0 2.2 SE 4.5 0.0 0.4
12:00 5.4 4.5 94 1016.8 3.1 SE 4.5 0.0 0.4
12:01 5.4 4.5 94 1016.8 3.1 SE 4.5 0.0 0.4
12:02 5.4 4.5 94 1016.9 3.1 SE 4.5 0.0 0.4
12:03 5.4 4.5 94 1016.8 3.1 SE 4.5 0.0 0.4
12:04 5.4 4.5 94 1016.9 3.1 SE 4.5 0.0 0.4
12:05 5.4 4.4 93 1016.8 3.1 SE 4.5 0.0 0.4
12:07 5.4 4.4 93 1016.8 4.5 SE 4.5 0.0 0.4
12:08 5.4 4.4 93 1016.8 3.1 SE 4.5 0.0 0.4
12:10 5.4 4.4 93 1016.7 3.8 SE 4.5 0.0 0.4
12:11 5.4 4.4 93 1016.7 3.8 SE 4.5 0.0 0.4
12:13 5.4 4.4 93 1016.6 3.8 SE 4.5 0.0 0.4
12:14 5.4 4.2 92 1016.6 3.8 SE 4.5 0.0 0.4
12:15 5.4 4.2 92 1016.7 4.5 SE 4.5 0.0 0.4
12:16 5.5 4.3 92 1016.6 4.5 SE 4.5 0.0 0.4
12:17 5.4 4.2 92 1016.6 3.8 SE 4.5 0.0 0.4
12:18 5.4 4.2 92 1016.7 2.2 SE 4.5 0.0 0.4
12:19 5.4 4.2 92 1016.7 2.2 SE 4.5 0.0 0.4
12:20 5.4 4.2 92 1016.6 2.2 SE 4.5 0.0 0.4
12:21 5.5 4.3 92 1016.5 2.2 SE 4.5 0.0 0.4
12:22 5.5 4.3 92 1016.5 2.2 SE 4.5 0.0 0.4
12:23 5.4 4.2 92 1016.4 1.6 SE 4.5 0.0 0.4
12:24 5.4 4.2 92 1016.4 3.1 SE 4.5 0.0 0.4
12:25 5.4 4.2 92 1016.4 2.2 SE 4.5 0.0 0.4
12:26 5.5 4.3 92 1016.5 2.2 SE 3.8 0.0 0.4
12:27 5.5 4.3 92 1016.3 3.1 SE 3.1 0.0 0.4
12:28 5.4 4.1 91 1016.3 3.1 SE 3.1 0.0 0.4
12:29 5.4 4.2 92 1016.3 3.8 SE 3.8 0.0 0.4
12:30 5.5 4.3 92 1016.3 3.8 SE 3.8 0.0 0.4
12:31 5.5 4.3 92 1016.2 3.1 SE 3.8 0.0 0.4
12:32 5.5 4.3 92 1016.2 2.2 SE 3.8 0.0 0.4
12:33 5.5 4.3 92 1016.4 2.2 SE 3.8 0.0 0.4
12:34 5.5 4.1 91 1016.2 1.6 SE 3.8 0.0 0.4
12:35 5.5 4.1 91 1016.1 2.2 SE 3.8 0.0 0.4
12:36 5.5 4.1 91 1016.2 1.6 SE 3.8 0.0 0.4
12:37 5.5 4.3 92 1016.1 3.1 SE 3.8 0.0 0.4
12:38 5.5 4.1 91 1016.1 3.1 SE 3.8 0.0 0.4
12:39 5.5 4.3 92 1016.1 3.1 SE 3.8 0.0 0.4
12:40 5.5 4.3 92 1016.0 4.5 SE 4.5 0.0 0.4
12:41 5.5 4.3 92 1016.1 3.8 SE 4.5 0.0 0.4
12:42 5.5 4.3 92 1016.0 4.5 SE 4.5 0.0 0.4
12:43 5.6 4.4 92 1015.9 5.4 SE 5.4 0.0 0.4
12:44 5.6 4.4 92 1015.9 3.8 SE 5.4 0.0 0.4
12:45 5.6 4.4 92 1015.7 3.1 SE 5.4 0.0 0.4
12:46 5.6 4.4 92 1015.9 3.1 SE 5.4 0.0 0.4
12:47 5.6 4.4 92 1015.7 4.5 SE 5.4 0.0 0.4
12:48 5.6 4.4 92 1015.9 3.1 SE 5.4 0.0 0.4
12:49 5.6 4.4 92 1015.8 3.8 SE 5.4 0.0 0.4
12:50 5.6 4.4 92 1015.7 3.8 SE 5.4 0.0 0.4
12:51 5.6 4.4 92 1015.6 5.4 SE 5.4 0.0 0.4
12:52 5.6 4.4 92 1015.7 3.8 S 5.4 0.0 0.4
12:54 5.6 4.4 92 1015.7 4.5 SE 5.4 0.0 0.4
12:55 5.5 4.3 92 1015.6 3.1 SE 5.4 0.0 0.4
12:56 5.5 4.3 92 1015.7 4.5 SE 5.4 0.0 0.4
12:57 5.6 4.4 92 1015.6 4.5 SE 5.4 0.0 0.4
12:58 5.6 4.4 92 1015.5 4.5 SE 5.4 0.0 0.4
12:59 5.6 4.4 92 1015.5 4.5 SE 5.4 0.0 0.4
13:00 5.5 4.3 92 1015.4 3.8 SE 5.4 0.0 0.4
13:01 5.5 4.3 92 1015.6 3.8 SE 5.4 0.0 0.4
13:02 5.5 4.3 92 1015.3 3.8 SE 5.4 0.0 0.4
13:03 5.5 4.3 92 1015.5 3.8 SE 4.5 0.0 0.4
13:04 5.5 4.3 92 1015.4 3.8 SE 4.5 0.0 0.4
13:05 5.5 4.3 92 1015.3 3.8 SE 4.5 0.0 0.4
13:06 5.5 4.3 92 1015.3 5.4 SE 5.4 0.0 0.4
13:07 5.5 4.3 92 1015.2 4.5 SE 5.4 0.0 0.4
13:09 5.5 4.3 92 1015.2 3.1 SE 5.4 0.0 0.4
13:11 5.5 4.5 93 1015.1 3.8 SE 5.4 0.0 0.4
13:14 5.5 4.5 93 1014.9 4.5 SE 6.0 0.0 0.4
13:18 5.5 4.5 93 1014.8 6.0 SE 7.6 0.0 0.4
13:20 5.4 4.4 93 1014.9 5.4 SE 7.6 0.0 0.4
13:21 5.4 4.4 93 1014.7 3.8 SE 7.6 0.0 0.4
13:22 5.4 4.4 93 1014.6 3.8 SE 7.6 0.0 0.4
13:23 5.4 4.4 93 1014.7 3.8 SE 7.6 0.0 0.4
13:24 5.4 4.4 93 1014.7 3.8 SE 7.6 0.0 0.4
13:25 5.4 4.5 94 1014.7 3.8 SE 7.6 0.0 0.4
13:26 5.4 4.5 94 1014.5 3.8 SE 6.9 0.0 0.4
13:27 5.4 4.5 94 1014.6 2.2 SE 6.9 0.0 0.4
13:28 5.4 4.5 94 1014.4 3.1 SE 6.9 0.0 0.4
13:29 5.4 4.5 94 1014.5 3.1 SE 6.9 0.0 0.4
13:30 5.4 4.5 94 1014.6 3.1 SE 6.9 0.0 0.4
13:31 5.4 4.5 94 1014.3 3.1 SE 6.9 0.0 0.4
13:32 5.4 4.5 94 1014.2 4.5 SE 6.9 0.0 0.4
13:33 5.4 4.5 94 1014.5 4.5 SE 4.5 0.0 0.4
13:34 5.4 4.5 94 1014.2 3.1 SE 4.5 0.0 0.4
13:35 5.4 4.5 94 1014.3 2.2 SE 4.5 0.0 0.4
13:36 5.4 4.5 94 1014.2 2.2 SE 4.5 0.0 0.4
13:37 5.3 4.4 94 1014.2 3.1 E 4.5 0.0 0.4
13:38 5.3 4.4 94 1014.3 2.2 SE 4.5 0.0 0.4
13:39 5.3 4.6 95 1014.3 3.1 SE 4.5 0.0 0.4
13:40 5.3 4.6 95 1014.2 0.7 SE 4.5 0.0 0.4
13:41 5.3 4.6 95 1014.3 0.7 SE 4.5 0.0 0.4
13:43 5.3 4.6 95 1014.2 0.7 SE 4.5 0.0 0.4
13:44 5.3 4.6 95 1014.2 1.6 SE 3.1 0.0 0.4
13:45 5.3 4.6 95 1014.3 1.6 SE 3.1 0.0 0.4
13:46 5.3 4.6 95 1014.3 1.6 SE 3.1 0.0 0.4
13:47 5.3 4.6 95 1014.2 1.6 SE 3.1 0.0 0.4
13:48 5.3 4.6 95 1014.2 2.2 SE 3.1 0.0 0.4
13:49 5.4 4.7 95 1014.2 1.6 SE 3.1 0.0 0.4
13:50 5.4 4.7 95 1014.1 0.7 SE 2.2 0.0 0.4
13:51 5.4 4.7 95 1014.0 0.7 SE 2.2 0.0 0.4
13:52 5.4 4.7 95 1014.1 0.7 SE 2.2 0.0 0.4
13:53 5.4 4.7 95 1014.0 1.6 SE 2.2 0.0 0.4
13:54 5.4 4.8 96 1013.9 1.6 SE 2.2 0.0 0.4
13:55 5.4 4.8 96 1013.9 1.6 SE 2.2 0.0 0.4
13:56 5.5 4.9 96 1014.0 1.6 SE 2.2 0.0 0.4
13:57 5.5 4.9 96 1013.9 1.6 SE 2.2 0.0 0.4
13:58 5.5 4.9 96 1013.8 0.7 SE 1.6 0.0 0.4
13:59 5.5 4.9 96 1013.8 2.2 SE 2.2 0.0 0.4
14:00 5.5 4.9 96 1013.8 1.6 SE 2.2 0.0 0.4
14:01 5.5 4.9 96 1013.8 1.6 SE 2.2 0.0 0.4
14:02 5.5 4.9 96 1013.6 1.6 SE 2.2 0.0 0.4
14:03 5.5 4.9 96 1013.6 1.6 SE 2.2 0.0 0.4
14:04 5.5 4.9 96 1013.7 1.6 SE 2.2 0.0 0.4
14:05 5.5 4.9 96 1013.6 2.2 NE 2.2 0.0 0.4
14:07 5.5 4.9 96 1013.6 2.2 NE 2.2 0.0 0.4
14:08 5.5 4.9 96 1013.6 0.7 NE 2.2 0.0 0.4
14:10 5.5 4.9 96 1013.5 2.2 NE 2.2 0.0 0.4
14:11 5.5 4.9 96 1013.4 2.2 NE 2.2 0.0 0.4
14:13 5.5 4.9 96 1013.4 1.6 NE 2.2 0.0 0.4
14:14 5.5 4.9 96 1013.4 1.6 NE 2.2 0.0 0.4
14:15 5.5 4.9 96 1013.3 1.6 NE 2.2 0.0 0.4
14:16 5.5 4.9 96 1013.3 1.6 NE 2.2 0.0 0.4
14:17 5.5 4.9 96 1013.2 0.7 NE 2.2 0.0 0.4
14:18 5.5 4.9 96 1013.3 1.6 NE 2.2 0.0 0.4
14:19 5.5 4.9 96 1013.2 1.6 NE 2.2 0.0 0.4
14:20 5.5 4.9 96 1013.2 2.2 NE 2.2 0.0 0.4
14:21 5.5 4.9 96 1013.1 1.6 NE 2.2 0.0 0.4
14:22 5.5 4.9 96 1013.1 1.6 NE 2.2 0.0 0.4
14:23 5.5 4.9 96 1013.0 0.7 NE 2.2 0.0 0.4
14:24 5.5 4.9 96 1013.2 1.6 NE 2.2 0.0 0.4
14:25 5.5 4.9 96 1013.1 0.7 NE 2.2 0.0 0.4
14:26 5.5 4.9 96 1013.2 2.2 NE 2.2 0.0 0.4
14:27 5.5 4.9 96 1013.1 1.6 NE 2.2 0.0 0.4
14:28 5.5 4.9 96 1013.0 1.6 NE 2.2 0.0 0.4
14:29 5.5 4.9 96 1013.0 1.6 NE 2.2 0.0 0.4
14:30 5.5 4.9 96 1013.1 0.7 NE 2.2 0.0 0.4
14:31 5.5 4.9 96 1012.8 1.6 NE 2.2 0.0 0.4
14:32 5.5 4.9 96 1012.9 0.7 NE 2.2 0.0 0.4
14:33 5.5 4.9 96 1012.9 2.2 NE 2.2 0.0 0.4
14:34 5.5 4.9 96 1012.8 1.6 NE 2.2 0.0 0.4
14:35 5.5 4.9 96 1012.9 2.2 NE 2.2 0.0 0.4
14:36 5.5 4.9 96 1012.9 0.7 NE 2.2 0.0 0.4
14:37 5.5 4.9 96 1012.8 0.7 NE 2.2 0.0 0.4
14:38 5.5 4.9 96 1012.8 0.7 NE 2.2 0.0 0.4
14:39 5.5 4.9 96 1012.8 0.7 NE 2.2 0.0 0.4
14:40 5.5 4.9 96 1012.8 2.2 NE 2.2 0.0 0.4
14:41 5.5 4.9 96 1012.7 0.7 NE 2.2 0.0 0.4
14:42 5.5 4.9 96 1012.7 0.7 NE 2.2 0.0 0.4
14:43 5.5 5.1 97 1012.6 0.7 NE 2.2 0.0 0.4
14:44 5.5 4.9 96 1012.7 1.6 NE 2.2 0.0 0.4
14:45 5.5 4.9 96 1012.7 1.6 NE 2.2 0.0 0.4
14:46 5.5 4.9 96 1012.6 2.2 NE 2.2 0.0 0.4
14:47 5.5 5.1 97 1012.6 0.7 NE 2.2 0.0 0.4
14:48 5.4 5.0 97 1012.4 1.6 NE 2.2 0.0 0.4
14:49 5.5 5.1 97 1012.6 1.6 NE 2.2 0.0 0.4
14:51 5.4 5.0 97 1012.2 1.6 NE 2.2 0.0 0.4
14:52 5.4 5.0 97 1012.4 1.6 NE 2.2 0.0 0.4
14:53 5.4 5.0 97 1012.2 1.6 NE 2.2 0.8 0.4
14:54 5.4 5.0 97 1012.2 0.7 NE 2.2 0.8 0.4
14:55 5.4 5.0 97 1012.2 0.7 NE 2.2 0.8 0.4
14:56 5.4 5.0 97 1012.2 1.6 NE 2.2 0.8 0.4
14:57 5.4 5.0 97 1012.2 3.1 E 3.1 0.8 0.4
14:58 5.4 5.0 97 1012.1 3.1 E 3.1 0.0 0.4
14:59 5.4 5.0 97 1012.2 4.5 SE 4.5 0.0 0.4
15:00 5.4 5.0 97 1012.2 3.8 SE 4.5 0.0 0.4
15:01 5.4 5.0 97 1012.1 3.8 SE 4.5 0.0 0.4
15:02 5.4 5.0 97 1012.1 3.8 SE 4.5 0.0 0.4
15:03 5.4 5.0 97 1012.0 3.8 SE 4.5 0.0 0.4
15:04 5.4 5.0 97 1012.0 3.8 SE 4.5 0.0 0.4
15:05 5.4 5.0 97 1012.2 3.8 SE 4.5 0.0 0.4
15:07 5.4 5.0 97 1011.9 2.2 SE 4.5 1.5 0.6
15:09 5.3 4.9 97 1011.9 3.8 SE 4.5 1.5 0.6
15:10 5.3 4.9 97 1012.0 3.1 SE 3.8 1.5 0.6
15:12 5.3 5.0 98 1012.0 3.8 SE 3.8 0.0 0.6
15:13 5.3 5.0 98 1012.0 3.1 SE 3.8 0.0 0.6
15:15 5.3 5.0 98 1011.7 2.2 SE 3.8 0.0 0.6
15:16 5.3 5.0 98 1011.7 2.2 SE 3.8 0.0 0.6
15:17 5.3 5.0 98 1011.9 2.2 SE 3.8 0.0 0.6
15:18 5.3 5.0 98 1011.8 3.1 SE 3.8 0.0 0.6
15:19 5.3 5.0 98 1011.8 3.1 SE 3.8 0.0 0.6
15:20 5.3 5.0 98 1011.8 3.1 SE 3.8 0.0 0.6
15:21 5.3 5.0 98 1011.7 2.2 SE 3.8 0.0 0.6
15:22 5.3 5.0 98 1011.7 1.6 SE 3.8 0.0 0.6
15:23 5.3 5.0 98 1011.7 2.2 SE 3.8 0.0 0.6
15:24 5.3 5.0 98 1011.7 1.6 SE 3.8 0.8 0.6
15:25 5.3 5.0 98 1011.6 2.2 SE 3.8 0.8 0.6
15:26 5.3 5.0 98 1011.6 2.2 SE 3.8 0.8 0.6
15:28 5.3 5.0 98 1011.6 0.7 SE 3.8 0.8 0.6
15:29 5.2 4.9 98 1011.7 2.2 SE 3.8 0.0 0.6
15:30 5.2 5.1 99 1011.5 0.7 SE 3.1 0.0 0.6
15:31 5.2 5.1 99 1011.5 2.2 SE 2.2 0.0 0.6
15:32 5.2 5.1 99 1011.5 3.8 SE 3.8 0.0 0.6
15:33 5.2 5.1 99 1011.5 4.5 SE 4.5 0.0 0.6
15:34 5.2 5.1 99 1011.6 4.5 SE 4.5 0.0 0.6
15:35 5.2 5.1 99 1011.5 3.1 SE 4.5 0.0 0.6
15:36 5.2 5.1 99 1011.5 0.7 SE 4.5 0.0 0.6
15:37 5.2 5.1 99 1011.5 1.6 SE 4.5 0.0 0.6
15:39 5.2 5.1 99 1011.5 0.7 SE 4.5 0.0 0.6
15:40 5.2 5.1 99 1011.3 1.6 SE 4.5 0.0 0.6
15:41 5.2 5.1 99 1011.2 0.7 SE 4.5 0.0 0.6
15:42 5.2 5.1 99 1011.2 1.6 SE 4.5 0.0 0.6
15:43 5.2 5.1 99 1011.2 2.2 SE 4.5 0.0 0.7
15:44 5.2 5.1 99 1011.3 3.1 SE 3.1 0.8 0.7
15:45 5.2 5.1 99 1011.3 2.2 SE 3.1 0.8 0.7
15:46 5.2 5.1 99 1011.3 1.6 SE 3.1 0.8 0.7
15:47 5.2 5.1 99 1011.2 2.2 SE 3.1 0.8 0.7
15:48 5.2 5.1 99 1011.1 1.6 SE 3.1 0.8 0.7
15:49 5.2 5.1 99 1011.0 1.6 SE 3.1 0.0 0.7
15:50 5.2 5.1 99 1011.0 1.6 SE 3.1 0.0 0.7
15:51 5.2 5.1 99 1010.9 0.7 SE 3.1 0.0 0.7
15:52 5.2 5.1 99 1011.0 0.7 SE 3.1 0.0 0.7
15:53 5.2 5.1 99 1011.0 0.7 SE 3.1 0.0 0.7
15:55 5.2 5.1 99 1011.0 0.7 SE 2.2 0.0 0.7
15:56 5.2 5.1 99 1011.0 1.6 SE 2.2 0.0 0.7
15:57 5.2 5.1 99 1011.0 1.6 SE 2.2 0.0 0.7
15:58 5.2 5.1 99 1010.8 2.2 SE 2.2 0.0 0.7
15:59 5.2 5.1 99 1010.8 2.2 SE 2.2 0.0 0.7
16:00 5.2 5.1 99 1010.7 1.6 SE 2.2 0.0 0.7
16:01 5.2 5.1 99 1010.8 3.1 SE 3.1 0.0 0.7
16:03 5.2 5.1 99 1010.7 3.1 SE 3.1 0.0 0.7
16:04 5.2 5.1 99 1010.8 3.1 SE 3.1 0.0 0.7
16:05 5.2 5.1 99 1010.7 3.1 SE 3.1 0.0 0.7
16:06 5.2 5.1 99 1010.7 3.1 SE 3.1 0.0 0.7
16:07 5.2 5.1 99 1010.7 3.1 SE 3.1 0.0 0.7
16:09 5.2 5.1 99 1010.8 3.1 SE 3.1 0.0 0.7
16:10 5.2 5.1 99 1010.7 1.6 SE 3.1 0.0 0.7
16:11 5.2 5.1 99 1010.7 2.2 SE 3.1 0.0 0.7
16:13 5.2 5.1 99 1010.7 3.8 SE 3.8 0.0 0.7
16:14 5.2 5.1 99 1010.6 3.1 SE 3.8 0.0 0.7
16:15 5.2 5.1 99 1010.5 2.2 SE 3.8 0.0 0.7
16:16 5.2 5.1 99 1010.5 3.1 SE 3.8 0.0 0.7
16:17 5.2 5.1 99 1010.3 3.8 SE 3.8 0.0 0.7
16:18 5.2 5.1 99 1010.5 2.2 SE 3.8 0.0 0.7
16:20 5.2 5.1 99 1010.5 2.2 SE 3.8 0.0 0.7
16:21 5.2 5.1 99 1010.5 2.2 SE 3.8 0.0 0.7
16:22 5.2 5.1 99 1010.4 3.8 SE 3.8 0.0 0.7
16:23 5.2 5.1 99 1010.5 3.1 SE 3.8 0.0 0.7
16:24 5.2 5.1 99 1010.3 3.1 SE 3.8 0.0 0.7
16:25 5.1 5.0 99 1010.5 3.1 SE 3.8 0.0 0.7
16:26 5.2 5.1 99 1010.4 2.2 SE 3.8 0.0 0.7
16:27 5.2 5.1 99 1010.3 2.2 SE 3.8 0.0 0.7
16:28 5.1 5.0 99 1010.4 2.2 SE 3.8 0.0 0.7
16:29 5.1 5.0 99 1010.3 2.2 SE 3.8 0.0 0.7
16:30 5.1 5.0 99 1010.3 3.1 SE 3.8 0.0 0.8
16:31 5.1 5.0 99 1010.3 3.1 SE 3.8 0.8 0.8
16:32 5.1 5.0 99 1010.3 3.1 SE 3.8 0.8 0.8
16:33 5.2 5.1 99 1010.4 3.1 SE 3.1 0.8 0.8
16:34 5.1 5.0 99 1010.3 3.1 SE 3.1 0.8 0.8
16:35 5.1 5.0 99 1010.2 2.2 SE 3.1 0.8 0.8
16:36 5.2 5.1 99 1010.1 3.1 SE 3.1 0.0 0.8
16:37 5.1 5.0 99 1010.3 3.1 SE 3.1 0.0 0.8
16:38 5.2 5.1 99 1010.2 2.2 SE 3.1 0.0 0.8
16:39 5.1 5.0 99 1010.2 3.1 SE 3.8 0.0 0.8
16:40 5.1 5.0 99 1010.2 2.2 SE 3.8 0.0 0.8
16:41 5.2 5.1 99 1010.1 2.2 SE 3.8 0.0 0.8
16:42 5.1 5.0 99 1010.2 2.2 SE 3.8 0.0 0.8
16:43 5.1 5.0 99 1010.2 3.1 SE 3.8 0.0 0.8
16:44 5.2 5.1 99 1010.1 3.1 SE 3.8 0.0 0.8
16:45 5.2 5.1 99 1010.2 1.6 SE 3.8 0.8 0.8
16:46 5.1 5.0 99 1010.2 0.7 SE 3.8 0.8 0.8
16:47 5.2 5.1 99 1010.1 1.6 SE 3.8 0.8 0.8
16:48 5.2 5.1 99 1010.1 2.2 SE 3.8 0.8 0.8
16:49 5.2 5.1 99 1010.0 2.2 SE 3.1 0.8 0.8
16:50 5.2 5.1 99 1010.1 2.2 SE 3.1 0.0 0.8
16:51 5.2 5.1 99 1010.0 3.1 SE 3.1 0.0 0.8
16:52 5.2 5.1 99 1010.0 2.2 SE 3.1 0.0 0.8
16:54 5.2 5.1 99 1010.1 3.1 SE 3.1 0.0 0.8
16:55 5.2 5.1 99 1009.9 2.2 SE 3.1 0.0 0.8
16:56 5.2 5.1 99 1009.9 4.5 SE 4.5 0.0 0.8
16:57 5.2 5.1 99 1009.9 3.1 SE 4.5 0.0 0.8
16:58 5.2 5.1 99 1009.9 3.1 SE 4.5 0.0 0.8
16:59 5.2 5.1 99 1009.9 2.2 SE 4.5 0.8 0.9
17:00 5.2 5.1 99 1009.8 2.2 SE 4.5 0.8 0.9
17:01 5.2 5.1 99 1009.8 2.2 SE 4.5 0.8 0.9
17:02 5.2 5.1 99 1009.7 2.2 SE 4.5 0.8 0.9
17:03 5.2 5.1 99 1009.7 2.2 SE 4.5 0.8 0.9
17:04 5.2 5.1 99 1009.6 2.2 SE 4.5 0.0 0.9
17:05 5.2 5.1 99 1009.8 1.6 SE 4.5 0.0 0.9
17:07 5.2 5.1 99 1009.7 2.2 SE 3.1 0.0 0.9
17:09 5.2 5.1 99 1009.6 1.6 SE 2.2 0.0 0.9
17:10 5.2 5.1 99 1009.4 2.2 SE 2.2 0.8 0.9
17:12 5.2 5.1 99 1009.5 2.2 SE 2.2 0.8 0.9
17:13 5.2 5.1 99 1009.4 1.6 SE 2.2 0.8 0.9
17:14 5.2 5.1 99 1009.6 1.6 SE 2.2 0.8 0.9
17:15 5.2 5.1 99 1009.5 1.6 SE 2.2 0.0 0.9
17:16 5.2 5.1 99 1009.6 0.7 SE 2.2 0.0 0.9
17:17 5.2 5.1 99 1009.6 2.2 SE 2.2 0.0 0.9
17:18 5.2 5.1 99 1009.4 1.6 SE 2.2 0.0 0.9
17:19 5.2 5.1 99 1009.4 0.7 SE 2.2 0.0 0.9
17:21 5.2 5.1 99 1009.5 1.6 SE 2.2 0.0 0.9
17:22 5.2 5.1 99 1009.4 0.0 SE 2.2 0.0 0.9
17:23 5.2 5.1 99 1009.3 1.6 SE 2.2 0.0 0.9
17:24 5.2 5.1 99 1009.2 2.2 SE 2.2 0.8 1.0
17:25 5.2 5.1 99 1009.1 0.7 SE 2.2 0.8 1.0
17:26 5.2 5.1 99 1009.3 1.6 SE 2.2 0.8 1.0
17:27 5.2 5.1 99 1009.0 2.2 SE 2.2 0.8 1.0
17:29 5.2 5.1 99 1009.2 2.2 SE 2.2 0.0 1.0
17:30 5.2 5.1 99 1009.0 2.2 SE 2.2 0.0 1.0
17:31 5.2 5.1 99 1009.1 1.6 SE 2.2 0.0 1.0
17:32 5.2 5.1 99 1009.0 1.6 SE 2.2 0.0 1.0
17:33 5.2 5.1 99 1008.9 2.2 SE 2.2 0.0 1.0
17:35 5.2 5.1 99 1008.9 2.2 SE 2.2 0.0 1.0
17:36 5.2 5.1 99 1008.9 1.6 SE 2.2 0.0 1.0
17:37 5.2 5.1 99 1008.8 2.2 SE 2.2 0.0 1.0
17:38 5.2 5.1 99 1008.7 1.6 SE 2.2 0.0 1.0
17:39 5.2 5.1 99 1008.8 3.8 SE 3.8 0.0 1.1
17:41 5.2 5.1 99 1008.8 3.1 SE 3.8 0.8 1.1
17:42 5.2 5.1 99 1008.7 1.6 SE 3.8 0.8 1.1
17:43 5.2 5.1 99 1008.7 2.2 SE 3.8 0.8 1.1
17:45 5.2 5.1 99 1008.7 3.8 SE 3.8 0.0 1.1
17:46 5.2 5.1 99 1008.6 2.2 SE 3.8 0.0 1.1
17:47 5.2 5.1 99 1008.7 1.6 SE 3.8 0.0 1.1
17:48 5.2 5.1 99 1008.6 2.2 SE 3.8 0.0 1.1
17:49 5.2 5.1 99 1008.7 3.1 SE 3.8 0.0 1.1
17:51 5.2 5.1 99 1008.6 3.1 SE 3.8 0.8 1.1
17:52 5.2 5.1 99 1008.5 1.6 SE 3.8 0.8 1.1
17:53 5.2 5.1 99 1008.5 2.2 SE 3.8 0.8 1.1
17:54 5.2 5.1 99 1008.4 1.6 SE 3.8 0.8 1.1
17:55 5.2 5.1 99 1008.3 1.6 SE 3.1 0.8 1.1
17:57 5.2 5.1 99 1008.4 2.2 SE 3.1 0.0 1.1
17:59 5.2 5.1 99 1008.4 3.1 SE 3.1 0.0 1.1
18:00 5.2 5.1 99 1008.3 3.1 SE 3.1 0.0 1.1
18:02 5.2 5.1 99 1008.4 3.1 SE 3.1 0.0 1.1
18:03 5.2 5.1 99 1008.3 3.1 SE 3.1 0.0 1.1
18:04 5.2 5.1 99 1008.3 3.1 SE 3.1 0.0 1.1
18:05 5.2 5.1 99 1008.2 5.4 SE 5.4 0.0 1.1
18:07 5.2 5.1 99 1008.3 3.8 SE 5.4 0.8 1.2
18:08 5.2 5.1 99 1008.1 3.8 SE 5.4 0.8 1.2
18:10 5.2 5.1 99 1008.2 4.5 SE 5.4 0.8 1.2
18:11 5.2 5.1 99 1008.1 3.1 SE 5.4 0.8 1.2
18:13 5.2 5.1 99 1008.0 6.9 SE 6.9 0.0 1.2
18:15 5.2 5.1 99 1008.0 3.8 SE 6.9 0.0 1.2
18:16 5.2 5.1 99 1007.9 3.1 SE 6.9 0.0 1.2
18:17 5.2 5.1 99 1008.0 3.8 SE 6.9 0.0 1.2
18:18 5.2 5.1 99 1007.8 3.8 SE 6.9 0.0 1.2
18:20 5.2 5.1 99 1008.0 3.8 SE 6.9 0.0 1.2
18:21 5.2 5.1 99 1007.7 5.4 SE 6.9 0.0 1.2
18:22 5.2 5.1 99 1007.8 3.1 SE 6.9 0.0 1.2
18:23 5.2 5.1 99 1007.6 5.4 SE 5.4 0.0 1.3
18:24 5.2 5.1 99 1007.6 3.8 SE 5.4 0.8 1.3
18:25 5.2 5.1 99 1007.6 3.8 SE 5.4 0.8 1.3
18:27 5.2 5.1 99 1007.6 4.5 SE 5.4 0.8 1.3
18:28 5.2 5.1 99 1007.6 3.8 SE 5.4 0.8 1.3
18:30 5.2 5.1 99 1007.5 2.2 SE 5.4 0.0 1.3
18:31 5.2 5.1 99 1007.5 3.8 SE 5.4 0.0 1.3
18:32 5.3 5.2 99 1007.6 3.8 SE 5.4 0.0 1.3
18:33 5.2 5.1 99 1007.5 3.1 SE 5.4 0.0 1.3
18:34 5.2 5.1 99 1007.5 3.1 SE 5.4 0.0 1.3
18:35 5.3 5.2 99 1007.4 4.5 SE 5.4 0.0 1.3
18:37 5.3 5.2 99 1007.5 4.5 SE 5.4 0.0 1.3
18:39 5.3 5.2 99 1007.5 3.1 SE 5.4 0.0 1.3
18:40 5.3 5.2 99 1007.4 4.5 SE 5.4 0.0 1.3
18:41 5.3 5.2 99 1007.4 5.4 SE 5.4 0.0 1.3
18:43 5.3 5.2 99 1007.3 2.2 SE 5.4 0.0 1.3
18:44 5.3 5.2 99 1007.3 3.8 SE 5.4 0.0 1.3
18:45 5.3 5.2 99 1007.4 3.1 SE 5.4 0.0 1.3
18:46 5.3 5.2 99 1007.3 4.5 SE 5.4 0.0 1.3
18:47 5.3 5.2 99 1007.5 4.5 SE 5.4 0.0 1.3
18:48 5.3 5.2 99 1007.4 3.1 SE 5.4 0.0 1.3
18:49 5.3 5.2 99 1007.5 4.5 SE 5.4 0.0 1.3
18:50 5.3 5.2 99 1007.3 6.0 SE 6.0 0.0 1.3
18:51 5.3 5.2 99 1007.3 4.5 SE 6.0 0.0 1.3
18:52 5.3 5.2 99 1007.3 5.4 SE 6.0 0.0 1.3
18:54 5.3 5.2 99 1007.2 4.5 SE 6.0 0.0 1.3
18:55 5.3 5.2 99 1007.2 4.5 SE 6.0 0.0 1.3
18:56 5.3 5.2 99 1007.2 6.9 SE 6.9 0.0 1.3
18:57 5.3 5.2 99 1007.1 5.4 SE 6.9 0.0 1.3
18:58 5.3 5.2 99 1007.1 4.5 SE 6.9 0.0 1.3
18:59 5.3 5.2 99 1006.9 5.4 SE 6.9 0.8 1.3
19:00 5.3 5.2 99 1007.0 5.4 SE 6.9 0.8 1.3
19:01 5.3 5.2 99 1006.9 5.4 SE 6.9 0.8 1.3
19:02 5.3 5.2 99 1006.9 5.4 SE 6.9 0.8 1.3
19:04 5.3 5.2 99 1006.8 5.4 SE 6.9 0.0 1.3
19:05 5.4 5.3 99 1006.8 3.1 SE 6.9 0.0 1.3
19:06 5.4 5.3 99 1006.7 3.8 SE 6.0 0.0 1.3
19:08 5.4 5.3 99 1006.6 6.0 SE 6.0 0.0 1.3
19:09 5.4 5.3 99 1006.6 3.8 SE 6.0 0.0 1.3
19:11 5.4 5.3 99 1006.6 4.5 SE 6.0 0.0 1.3
19:13 5.4 5.3 99 1006.6 4.5 SE 6.0 0.0 1.3
19:14 5.4 5.3 99 1006.6 6.0 SE 6.0 0.0 1.3
19:15 5.4 5.3 99 1006.5 3.8 E 6.0 0.0 1.4
19:17 5.4 5.3 99 1006.4 3.8 SE 6.0 0.8 1.4
19:18 5.4 5.3 99 1006.3 4.5 SE 6.0 0.8 1.4
19:19 5.4 5.3 99 1006.5 3.8 SE 6.0 0.8 1.4
19:20 5.4 5.3 99 1006.2 4.5 SE 6.0 0.8 1.4
19:21 5.4 5.3 99 1006.3 6.9 SE 6.9 0.0 1.4
19:22 5.4 5.3 99 1006.3 3.8 SE 6.9 0.0 1.4
19:23 5.4 5.3 99 1006.2 2.2 SE 6.9 0.0 1.4
19:24 5.4 5.3 99 1006.4 4.5 SE 6.9 0.0 1.4
19:25 5.5 5.4 99 1006.2 3.8 SE 6.9 0.0 1.4
19:26 5.5 5.4 99 1006.2 3.8 SE 6.9 0.0 1.4
19:28 5.5 5.4 99 1006.2 3.8 SE 6.9 0.0 1.4
19:29 5.5 5.4 99 1006.1 4.5 SE 6.9 0.0 1.4
19:30 5.5 5.4 99 1006.1 3.8 E 6.9 0.0 1.4
19:31 5.5 5.4 99 1006.0 3.8 E 6.9 0.0 1.4
19:32 5.5 5.4 99 1006.0 2.2 SE 5.4 0.0 1.4
19:33 5.5 5.4 99 1005.9 6.0 SE 6.0 0.0 1.4
19:34 5.5 5.4 99 1005.8 3.8 SE 6.0 0.0 1.4
19:35 5.5 5.4 99 1005.9 9.8 SE 9.8 0.0 1.4
19:36 5.5 5.4 99 1005.8 3.8 E 9.8 0.0 1.4
19:38 5.6 5.5 99 1005.7 5.4 NE 9.8 0.0 1.4
19:39 5.6 5.5 99 1005.9 4.5 E 9.8 0.0 1.4
19:40 5.5 5.4 99 1005.7 3.8 E 9.8 0.0 1.4
19:41 5.6 5.5 99 1005.7 3.1 E 9.8 0.0 1.4
19:42 5.6 5.5 99 1005.7 3.1 E 9.8 0.0 1.4
19:43 5.6 5.5 99 1005.6 6.9 SE 9.8 0.0 1.4
19:44 5.6 5.5 99 1005.6 6.0 SE 9.8 0.0 1.4
19:45 5.6 5.5 99 1005.6 4.5 SE 9.8 0.0 1.4
19:46 5.6 5.5 99 1005.5 6.0 SE 6.9 0.0 1.4
19:48 5.6 5.5 99 1005.5 3.8 SE 6.9 0.0 1.4
19:49 5.6 5.5 99 1005.5 5.4 SE 6.9 0.8 1.4
19:50 5.6 5.5 99 1005.3 6.0 SE 6.9 0.8 1.4
19:51 5.6 5.5 99 1005.3 6.0 SE 6.9 0.8 1.4
19:52 5.6 5.5 99 1005.2 3.8 SE 6.9 0.8 1.4
19:53 5.6 5.5 99 1005.4 6.0 E 6.9 0.8 1.4
19:55 5.7 5.6 99 1005.1 3.8 SE 6.0 0.0 1.4
19:56 5.7 5.6 99 1005.3 5.4 SE 6.0 0.0 1.4
19:57 5.7 5.6 99 1005.2 3.8 SE 6.0 0.0 1.4
19:58 5.7 5.6 99 1005.1 7.6 E 7.6 0.0 1.4
19:59 5.7 5.6 99 1005.1 4.5 SE 7.6 0.0 1.4
20:00 5.7 5.6 99 1005.0 4.5 SE 7.6 0.0 1.4
20:01 5.7 5.6 99 1005.0 4.5 SE 7.6 0.0 1.4
20:03 5.7 5.6 99 1005.0 4.5 SE 7.6 0.0 1.4
20:04 5.7 5.6 99 1005.0 4.5 SE 7.6 0.0 1.4
20:05 5.8 5.7 99 1005.0 6.9 NW 7.6 0.0 1.5
20:06 5.8 5.7 99 1004.9 6.9 SE 7.6 0.8 1.5
20:08 5.8 5.7 99 1004.8 4.5 SE 7.6 0.8 1.5
20:09 5.8 5.7 99 1005.0 5.4 E 6.9 0.8 1.5
20:11 5.8 5.7 99 1005.1 6.9 SE 9.2 0.0 1.5
20:13 5.8 5.7 99 1004.8 6.9 SE 9.2 0.0 1.5
20:14 5.9 5.8 99 1004.7 9.2 SE 9.2 0.0 1.5
20:16 5.9 5.8 99 1004.7 6.9 SE 9.2 0.0 1.5
20:17 5.9 5.8 99 1004.7 8.3 SE 9.2 0.0 1.5
20:18 5.9 5.8 99 1004.7 7.6 SE 9.2 0.0 1.5
20:19 5.9 5.8 99 1004.6 4.5 SE 9.2 0.0 1.5
20:20 5.9 5.8 99 1004.6 12.1 SE 12.1 0.0 1.5
20:21 5.9 5.8 99 1004.6 8.3 E 12.1 0.0 1.5
20:22 5.9 5.8 99 1004.5 5.4 SE 12.1 0.0 1.5
20:23 5.9 5.8 99 1004.3 6.0 SE 12.1 0.0 1.5
20:25 5.9 5.8 99 1004.5 6.0 SE 12.1 0.0 1.5
20:26 6.0 5.9 99 1004.3 4.5 SE 12.1 0.0 1.5
20:27 6.0 5.9 99 1004.4 5.4 SE 12.1 0.0 1.5
20:28 6.0 5.9 99 1004.3 5.4 SE 12.1 0.0 1.5
20:29 6.0 5.9 99 1004.2 7.6 SE 12.1 0.0 1.5
20:30 6.0 5.9 99 1004.2 9.2 SE 12.1 0.0 1.6
20:31 6.0 5.9 99 1004.2 9.2 SE 9.2 0.8 1.6
20:32 6.0 5.9 99 1004.1 7.6 SE 9.2 0.8 1.6
20:33 6.0 5.9 99 1004.0 9.2 SE 9.2 0.8 1.6
20:35 6.1 6.0 99 1004.0 10.7 SE 10.7 0.8 1.6
20:36 6.1 6.0 99 1003.9 8.3 SE 10.7 0.0 1.6
20:37 6.1 6.0 99 1003.9 7.6 SE 10.7 0.0 1.6
20:38 6.1 6.0 99 1003.7 6.9 SE 10.7 0.0 1.6
20:39 6.1 6.0 99 1003.7 6.0 SE 10.7 0.0 1.6
20:40 6.1 6.0 99 1003.8 7.6 SE 10.7 0.0 1.6
20:41 6.2 6.1 99 1003.6 6.9 SE 10.7 0.0 1.6
20:42 6.2 6.1 99 1003.6 13.6 SE 13.6 0.0 1.6
20:43 6.2 6.1 99 1003.6 9.2 SE 13.6 0.0 1.6
20:44 6.1 6.0 99 1003.6 9.2 SE 13.6 0.0 1.6
20:46 6.2 6.1 99 1003.6 8.3 SE 13.6 0.0 1.6
20:47 6.2 6.1 99 1003.5 6.9 SE 13.6 0.0 1.6
20:48 6.2 6.1 99 1003.4 6.0 SE 13.6 0.0 1.6
20:49 6.2 6.1 99 1003.5 9.2 SE 13.6 0.0 1.6
20:50 6.2 6.1 99 1003.4 6.9 SE 13.6 0.0 1.6
20:51 6.2 6.1 99 1003.3 6.0 SE 13.6 0.0 1.6
20:52 6.1 6.0 99 1003.3 6.9 E 13.6 0.8 1.6
20:53 6.2 6.1 99 1003.2 8.3 SE 9.2 0.8 1.6
20:54 6.2 6.1 99 1003.0 6.0 NE 9.2 0.8 1.6
20:56 6.1 6.0 99 1003.1 3.8 SE 9.2 0.8 1.6
20:57 6.2 6.1 99 1003.0 7.6 SE 9.2 0.0 1.6
20:58 6.2 6.1 99 1003.0 5.4 SE 9.2 0.0 1.6
20:59 6.2 6.1 99 1002.9 8.3 SE 9.2 0.0 1.6
21:00 6.2 6.1 99 1003.0 8.3 SE 9.2 0.0 1.6
21:01 6.2 6.1 99 1002.9 8.3 SE 9.2 0.0 1.6
21:02 6.2 6.1 99 1002.8 8.3 SE 9.2 0.0 1.6
21:03 6.2 6.1 99 1002.9 8.3 SE 9.2 0.0 1.6
21:05 6.2 6.1 99 1002.8 10.7 SE 10.7 0.0 1.6
21:06 6.2 6.1 99 1002.6 5.4 SE 10.7 0.0 1.6
21:08 6.2 6.1 99 1002.7 9.2 SE 10.7 0.0 1.6
21:09 6.2 6.1 99 1002.8 9.2 SE 10.7 0.0 1.6
21:11 6.2 6.1 99 1002.6 8.3 SE 10.7 0.0 1.6
21:12 6.2 6.1 99 1002.6 5.4 SE 10.7 0.0 1.6
21:14 6.2 6.1 99 1002.5 9.8 SE 10.7 0.0 1.6
21:16 6.2 6.1 99 1002.3 5.4 SE 9.8 0.0 1.6
21:17 6.1 6.0 99 1002.2 10.7 SE 10.7 0.0 1.6
21:18 6.2 6.1 99 1002.3 11.4 SE 11.4 0.0 1.6
21:19 6.2 6.1 99 1002.3 13.0 SE 13.0 0.0 1.6
21:20 6.2 6.1 99 1002.2 6.9 E 13.0 0.0 1.6
21:22 6.2 6.1 99 1002.1 10.7 S 13.0 0.0 1.6
21:23 6.2 6.1 99 1002.0 9.8 SE 13.0 0.0 1.6
21:24 6.2 6.1 99 1001.9 5.4 SE 13.0 0.0 1.6
21:25 6.2 6.1 99 1002.0 6.9 SE 13.0 0.0 1.6
21:26 6.2 6.1 99 1001.9 8.3 SE 13.0 0.0 1.6
21:27 6.2 6.1 99 1001.9 8.3 E 13.0 0.0 1.6
21:28 6.2 6.1 99 1001.8 6.0 SE 13.0 0.0 1.6
21:29 6.2 6.1 99 1001.8 6.9 E 13.0 0.0 1.6
21:31 6.2 6.1 99 1001.7 8.3 SE 10.7 0.0 1.6
21:32 6.3 6.2 99 1001.6 7.6 SE 10.7 0.0 1.6
21:33 6.3 6.2 99 1001.5 7.6 SE 11.4 0.0 1.6
21:34 6.3 6.2 99 1001.5 8.3 SE 11.4 0.0 1.6
21:35 6.3 6.2 99 1001.5 7.6 E 11.4 0.0 1.6
21:36 6.3 6.2 99 1001.5 10.7 E 11.4 0.0 1.6
21:37 6.3 6.2 99 1001.5 7.6 SE 11.4 0.0 1.6
21:38 6.3 6.2 99 1001.5 4.5 SE 11.4 0.0 1.6
21:39 6.3 6.2 99 1001.6 9.8 E 11.4 0.0 1.6
21:41 6.4 6.3 99 1001.4 9.8 E 11.4 0.0 1.6
21:42 6.4 6.3 99 1001.4 7.6 SE 11.4 0.0 1.6
21:43 6.4 6.3 99 1001.3 10.7 E 10.7 0.0 1.6
21:44 6.4 6.3 99 1001.2 7.6 SE 10.7 0.0 1.6
21:45 6.4 6.3 99 1001.3 10.7 SE 10.7 0.0 1.6
21:46 6.4 6.3 99 1001.1 8.3 SE 10.7 0.0 1.6
21:47 6.4 6.3 99 1001.0 7.6 SE 10.7 0.0 1.6
21:48 6.5 6.4 99 1001.0 12.1 SE 12.1 0.0 1.6
21:49 6.5 6.4 99 1000.9 8.3 E 12.1 0.0 1.6
21:51 6.5 6.4 99 1000.9 10.7 SE 12.1 0.0 1.6
21:52 6.5 6.4 99 1000.7 5.4 SE 12.1 0.0 1.6
21:53 6.5 6.4 99 1000.7 7.6 SE 12.1 0.0 1.6
21:54 6.6 6.5 99 1000.7 6.0 SE 12.1 0.0 1.6
21:55 6.6 6.5 99 1000.5 9.2 SE 12.1 0.0 1.6
21:56 6.6 6.5 99 1000.6 10.7 E 12.1 0.0 1.6
21:57 6.6 6.5 99 1000.5 6.0 SE 12.1 0.0 1.6
21:58 6.6 6.5 99 1000.4 9.8 SE 12.1 0.0 1.6
22:00 6.6 6.5 99 1000.3 9.8 SE 12.1 0.0 1.6
22:01 6.6 6.5 99 1000.3 9.8 SE 10.7 0.0 1.6
22:02 6.6 6.5 99 1000.3 9.8 SE 10.7 0.0 1.6
22:03 6.6 6.5 99 1000.3 9.8 SE 10.7 0.0 1.6
22:04 6.6 6.5 99 1000.2 9.8 SE 10.7 0.0 1.6
22:05 6.7 6.6 99 1000.3 13.0 SE 13.0 0.0 1.6
22:07 6.7 6.6 99 1000.3 8.3 SE 13.0 0.0 1.6
22:08 6.7 6.6 99 1000.2 7.6 SE 13.0 0.0 1.6
22:10 6.7 6.6 99 1000.2 11.4 E 13.0 0.0 1.6
22:12 6.7 6.6 99 1000.2 13.0 E 13.0 0.0 1.6
22:13 6.8 6.7 99 1000.1 9.2 SE 13.0 0.0 1.6
22:15 6.8 6.7 99 1000.0 9.2 SE 13.0 0.0 1.6
22:16 6.8 6.7 99 1000.1 11.4 SE 13.0 0.0 1.6
22:18 6.8 6.7 99 999.9 9.8 E 13.0 0.0 1.6
22:19 6.8 6.7 99 999.7 7.6 SE 13.0 0.0 1.6
22:20 6.8 6.7 99 999.7 7.6 SE 13.0 0.0 1.6
22:21 6.8 6.7 99 999.7 9.2 SE 13.0 0.0 1.6
22:22 6.8 6.7 99 999.6 8.3 SE 13.0 0.0 1.6
22:24 6.8 6.7 99 999.4 13.6 SE 13.6 0.0 1.6
22:25 6.8 6.7 99 999.4 9.8 SE 13.6 0.0 1.6
22:26 6.8 6.7 99 999.5 9.2 SE 13.6 0.0 1.6
22:27 6.8 6.7 99 999.3 10.7 SE 13.6 0.0 1.6
22:28 6.8 6.7 99 999.4 6.9 E 13.6 0.0 1.6
22:29 6.8 6.7 99 999.3 9.8 SE 13.6 0.0 1.6
22:30 6.8 6.7 99 999.1 10.7 SE 13.6 0.0 1.6
22:31 6.8 6.7 99 999.1 9.8 E 13.6 0.0 1.6
22:32 6.8 6.7 99 999.0 7.6 SE 13.6 0.0 1.6
22:33 6.8 6.7 99 999.0 8.3 S 13.6 0.0 1.6
22:35 6.8 6.7 99 998.8 9.2 SE 12.1 0.0 1.6
22:36 6.8 6.7 99 998.9 10.7 SE 12.1 0.0 1.6
22:37 6.9 6.8 99 998.7 9.2 SE 12.1 0.0 1.6
22:38 6.9 6.8 99 998.7 13.0 S 13.0 0.0 1.6
22:39 6.9 6.8 99 998.7 12.1 E 13.0 0.0 1.6
22:40 6.9 6.8 99 998.7 9.8 E 13.0 0.0 1.6
22:41 6.9 6.8 99 998.7 10.7 E 13.0 0.0 1.6
22:42 6.9 6.8 99 998.7 11.4 SE 13.0 0.0 1.6
22:43 6.9 6.8 99 998.7 8.3 SE 13.0 0.0 1.6
22:45 6.9 6.8 99 998.5 9.2 E 13.0 0.0 1.6
22:46 6.9 6.8 99 998.4 8.3 SE 13.0 0.0 1.6
22:47 6.9 6.8 99 998.5 10.7 NE 13.0 0.0 1.6
22:48 6.9 6.8 99 998.4 10.7 SE 13.0 0.0 1.6
22:49 6.9 6.8 99 998.4 9.2 SE 12.1 0.0 1.6
22:50 6.9 6.8 99 998.4 9.8 SE 11.4 0.0 1.6
22:51 6.9 6.8 99 998.3 6.0 SE 11.4 0.0 1.6
22:52 6.9 6.8 99 998.3 10.7 E 11.4 0.0 1.6
22:53 6.9 6.8 99 998.3 9.8 SE 11.4 0.0 1.6
22:54 6.9 6.8 99 998.2 7.6 SE 11.4 0.0 1.6
22:56 6.9 6.8 99 998.1 8.3 SE 11.4 0.0 1.6
22:57 7.0 6.9 99 998.0 9.2 SE 11.4 0.0 1.6
22:58 7.0 6.9 99 998.0 6.0 NE 11.4 0.0 1.6
22:59 7.0 6.9 99 997.9 8.3 S 10.7 0.0 1.6
23:00 7.0 6.9 99 998.0 14.5 SE 14.5 0.0 1.6
23:01 7.0 6.9 99 998.0 14.5 SE 14.5 0.0 1.6
23:02 7.0 6.9 99 998.0 14.5 SE 14.5 0.0 1.6
23:03 7.0 6.9 99 997.8 14.5 SE 14.5 0.0 1.6
23:05 7.0 6.9 99 997.8 6.9 SE 14.5 0.0 1.6
23:06 7.0 6.9 99 997.8 8.3 SE 14.5 0.0 1.6
23:07 7.0 6.9 99 997.6 8.3 SE 14.5 0.0 1.6
23:09 7.0 6.9 99 997.5 10.7 SE 14.5 0.0 1.6
23:10 7.1 7.0 99 997.5 14.5 SE 14.5 0.0 1.6
23:12 7.1 7.0 99 997.4 9.8 SE 14.5 0.0 1.6
23:14 7.1 7.0 99 997.3 15.2 SE 15.2 0.0 1.6
23:15 7.1 7.0 99 997.4 13.6 SE 15.2 0.0 1.7
23:17 7.1 7.0 99 997.4 12.1 E 15.2 0.8 1.7
23:18 7.1 7.0 99 997.3 13.0 S 15.2 0.8 1.7
23:20 7.2 7.1 99 997.2 15.2 SE 15.2 0.8 1.7
23:21 7.2 7.1 99 997.2 13.0 SE 15.2 0.0 1.7
23:22 7.2 7.1 99 997.2 13.0 SE 15.2 0.0 1.7
23:23 7.2 7.1 99 997.0 9.8 E 15.2 0.0 1.7
23:24 7.2 7.1 99 997.0 10.7 SE 15.2 0.0 1.7
23:25 7.2 7.1 99 997.1 14.5 SE 15.2 0.0 1.7
23:27 7.3 7.2 99 997.0 10.7 SE 15.2 0.0 1.7
23:28 7.3 7.2 99 996.9 6.9 SE 15.2 0.0 1.7
23:29 7.2 7.1 99 996.8 11.4 SE 15.2 0.8 1.8
23:30 7.2 7.1 99 996.9 9.2 E 14.5 0.8 1.8
23:31 7.3 7.2 99 996.5 9.8 SE 14.5 0.8 1.8
23:33 7.3 7.2 99 996.5 12.1 SE 14.5 0.8 1.8
23:34 7.3 7.2 99 996.5 9.2 E 14.5 0.0 1.8
23:35 7.3 7.2 99 996.7 13.0 NE 14.5 0.0 1.8
23:36 7.3 7.2 99 996.6 9.8 SE 13.6 0.0 1.8
23:37 7.3 7.2 99 996.3 15.2 SE 15.2 0.0 1.8
23:38 7.3 7.2 99 996.4 14.5 SE 15.2 0.0 1.8
23:40 7.3 7.2 99 996.2 16.8 NE 16.8 0.0 1.8
23:41 7.3 7.2 99 996.2 15.2 S 16.8 0.0 1.8
23:42 7.3 7.2 99 996.1 18.3 SE 18.3 0.0 1.8
23:43 7.3 7.2 99 996.2 10.7 E 18.3 0.8 1.8
23:44 7.3 7.2 99 996.2 19.0 SE 19.0 0.8 1.8
23:45 7.3 7.2 99 995.9 15.2 E 19.0 0.8 1.8
23:46 7.3 7.2 99 996.0 11.4 E 19.0 0.8 1.9
23:47 7.3 7.2 99 996.0 11.4 NE 19.0 1.5 1.9
23:48 7.3 7.2 99 995.8 13.6 SE 19.0 0.8 1.9
23:49 7.3 7.2 99 995.7 10.7 S 19.0 0.8 1.9
23:50 7.3 7.2 99 995.7 11.4 SE 19.0 0.8 1.9
23:52 7.3 7.2 99 995.7 10.7 S 19.0 0.0 1.9
23:53 7.3 7.2 99 995.6 13.0 S 19.0 0.0 1.9
23:54 7.3 7.2 99 995.5 10.7 SE 15.2 0.0 1.9
23:55 7.3 7.2 99 995.5 11.4 E 13.6 0.0 1.9
23:56 7.3 7.2 99 995.4 11.4 S 13.6 0.0 1.9
23:57 7.4 7.3 99 995.4 10.7 SE 13.6 0.0 1.9
23:59 7.3 7.2 99 995.3 15.2 SE 15.2 0.0 1.9

UK - WEATHER STATION TOPSITES - UK World Weather Websites

This is a private weather station, never base important decisions or events on data from this weather station. Although every effort has been made to make the data as accurate as possible it does not meet MetOffice standards. It is proved as a guide of local weather conditions. We accept no liability for any loss which may arise from use of the data.

Copyright © Carnkie Weather 2009 - 2018.